THT101 KLAX-NTAA
Flight info
| Callsign | THT101 |
|---|---|
| Flight time | 7h 32m |
| Altitude | 36000 |
| Route | SUMMR2 FICKY G575 ORARE DCT ASOKI ASOKI3V |
| Aircraft | B789/H-SDE1E2E3FGHIJ2J3J4J5M1RWXY/LB1D1 |
Departure
| Time | 2026-05-09 15:41 |
|---|---|
| Airport | Los Angeles International Airport (KLAX) |
Arrival
| Time | 2026-05-09 23:14 |
|---|---|
| Airport | Fa'a'ā International Airport (NTAA) |
| Time | Latitude | Longitude | Altitude | Speed | Heading |
|---|---|---|---|---|---|
| 2026-05-09 15:11 | 33.94116 | -118.41398 | 98 ft | 0 kts | 291° |
| 2026-05-09 15:11 | 33.94120 | -118.41410 | 99 ft | 0 kts | 292° |
| 2026-05-09 15:31 | 33.94119 | -118.41407 | 98 ft | 2 kts | 292° |
| 2026-05-09 15:31 | 33.94110 | -118.41379 | 98 ft | 2 kts | 291° |
| 2026-05-09 15:31 | 33.94101 | -118.41355 | 99 ft | 4 kts | 296° |
| 2026-05-09 15:32 | 33.94089 | -118.41329 | 96 ft | 4 kts | 304° |
| 2026-05-09 15:32 | 33.94073 | -118.41303 | 98 ft | 4 kts | 320° |
| 2026-05-09 15:32 | 33.94051 | -118.41289 | 97 ft | 3 kts | 352° |
| 2026-05-09 15:32 | 33.94027 | -118.41285 | 97 ft | 4 kts | 353° |
| 2026-05-09 15:33 | 33.94019 | -118.41284 | 97 ft | 0 kts | 353° |
| 2026-05-09 15:35 | 33.94021 | -118.41284 | 98 ft | 1 kts | 353° |
| 2026-05-09 15:35 | 33.94044 | -118.41288 | 99 ft | 7 kts | 353° |
| 2026-05-09 15:35 | 33.94123 | -118.41300 | 100 ft | 16 kts | 353° |
| 2026-05-09 15:35 | 33.94247 | -118.41318 | 99 ft | 18 kts | 353° |
| 2026-05-09 15:36 | 33.94368 | -118.41336 | 99 ft | 17 kts | 353° |
| 2026-05-09 15:36 | 33.94483 | -118.41353 | 99 ft | 16 kts | 353° |
| 2026-05-09 15:36 | 33.94603 | -118.41371 | 100 ft | 19 kts | 353° |
| 2026-05-09 15:36 | 33.94737 | -118.41388 | 100 ft | 18 kts | 6° |
| 2026-05-09 15:37 | 33.94790 | -118.41301 | 101 ft | 14 kts | 79° |
| 2026-05-09 15:37 | 33.94805 | -118.41160 | 102 ft | 20 kts | 83° |
| 2026-05-09 15:37 | 33.94823 | -118.40984 | 101 ft | 23 kts | 83° |
| 2026-05-09 15:37 | 33.94844 | -118.40776 | 100 ft | 27 kts | 83° |
| 2026-05-09 15:38 | 33.94868 | -118.40555 | 100 ft | 26 kts | 82° |
| 2026-05-09 15:38 | 33.94890 | -118.40345 | 99 ft | 24 kts | 83° |
| 2026-05-09 15:38 | 33.94910 | -118.40149 | 99 ft | 23 kts | 83° |
| 2026-05-09 15:38 | 33.94927 | -118.39982 | 98 ft | 13 kts | 79° |
| 2026-05-09 15:39 | 33.94935 | -118.39953 | 100 ft | 0 kts | 64° |
| 2026-05-09 15:39 | 33.94937 | -118.39949 | 99 ft | 1 kts | 60° |
| 2026-05-09 15:39 | 33.94952 | -118.39932 | 99 ft | 5 kts | 36° |
| 2026-05-09 15:40 | 33.95005 | -118.39913 | 101 ft | 11 kts | 360° |
| 2026-05-09 15:40 | 33.95039 | -118.39935 | 99 ft | 3 kts | 298° |
| 2026-05-09 15:40 | 33.95038 | -118.39970 | 100 ft | 9 kts | 263° |
| 2026-05-09 15:40 | 33.95006 | -118.40301 | 104 ft | 67 kts | 262° |
| 2026-05-09 15:41 | 33.94922 | -118.41125 | 105 ft | 130 kts | 263° |
| 2026-05-09 15:41 | 33.94837 | -118.41957 | 102 ft | 166 kts | 263° |
| 2026-05-09 15:41 | 33.94694 | -118.43493 | 390 ft | 181 kts | 265° |
| 2026-05-09 15:41 | 33.94558 | -118.44950 | 1038 ft | 184 kts | 268° |
| 2026-05-09 15:42 | 33.94375 | -118.46531 | 1737 ft | 193 kts | 261° |
| 2026-05-09 15:42 | 33.94333 | -118.48228 | 2248 ft | 215 kts | 269° |
| 2026-05-09 15:42 | 33.94271 | -118.50147 | 2536 ft | 243 kts | 267° |
| 2026-05-09 15:42 | 33.94051 | -118.52275 | 2901 ft | 269 kts | 264° |
| 2026-05-09 15:43 | 33.93924 | -118.54497 | 4029 ft | 262 kts | 267° |
| 2026-05-09 15:43 | 33.93785 | -118.56726 | 4837 ft | 275 kts | 265° |
| 2026-05-09 15:43 | 33.93596 | -118.59048 | 5206 ft | 278 kts | 265° |
| 2026-05-09 15:43 | 33.93405 | -118.61315 | 6347 ft | 272 kts | 265° |
| 2026-05-09 15:44 | 33.93225 | -118.63602 | 7198 ft | 277 kts | 265° |
| 2026-05-09 15:44 | 33.93047 | -118.65923 | 8049 ft | 281 kts | 265° |
| 2026-05-09 15:44 | 33.92869 | -118.68251 | 8873 ft | 285 kts | 265° |
| 2026-05-09 15:44 | 33.92683 | -118.70643 | 9723 ft | 289 kts | 265° |
| 2026-05-09 15:45 | 33.92493 | -118.73081 | 10335 ft | 302 kts | 265° |
| 2026-05-09 15:45 | 33.92289 | -118.75713 | 10493 ft | 330 kts | 265° |
| 2026-05-09 15:45 | 33.92067 | -118.78555 | 10839 ft | 347 kts | 265° |
| 2026-05-09 15:45 | 33.91838 | -118.81447 | 11666 ft | 348 kts | 265° |
| 2026-05-09 15:46 | 33.91726 | -118.84375 | 12373 ft | 352 kts | 275° |
| 2026-05-09 15:46 | 33.91869 | -118.87334 | 13101 ft | 357 kts | 272° |
| 2026-05-09 15:46 | 33.91913 | -118.90334 | 13879 ft | 361 kts | 272° |
| 2026-05-09 15:46 | 33.91978 | -118.93368 | 14576 ft | 364 kts | 273° |
| 2026-05-09 15:47 | 33.92083 | -118.96427 | 15301 ft | 367 kts | 274° |
| 2026-05-09 15:47 | 33.92182 | -118.99508 | 15998 ft | 370 kts | 272° |
| 2026-05-09 15:47 | 33.91848 | -119.02586 | 16668 ft | 375 kts | 253° |
| 2026-05-09 15:47 | 33.90898 | -119.05483 | 17282 ft | 380 kts | 248° |
| 2026-05-09 15:48 | 33.89817 | -119.08397 | 17982 ft | 383 kts | 247° |
| 2026-05-09 15:48 | 33.88713 | -119.11327 | 18594 ft | 386 kts | 248° |
| 2026-05-09 15:48 | 33.87636 | -119.14302 | 19153 ft | 389 kts | 248° |
| 2026-05-09 15:48 | 33.86559 | -119.17311 | 19709 ft | 393 kts | 248° |
| 2026-05-09 15:49 | 33.85458 | -119.20337 | 20250 ft | 397 kts | 248° |
| 2026-05-09 15:49 | 33.84337 | -119.23387 | 20781 ft | 400 kts | 248° |
| 2026-05-09 15:49 | 33.83212 | -119.26464 | 21298 ft | 404 kts | 248° |
| 2026-05-09 15:49 | 33.82080 | -119.29572 | 21787 ft | 408 kts | 248° |
| 2026-05-09 15:50 | 33.80909 | -119.32692 | 22280 ft | 412 kts | 243° |
| 2026-05-09 15:50 | 33.79258 | -119.35469 | 22793 ft | 417 kts | 227° |
| 2026-05-09 15:50 | 33.77065 | -119.37769 | 23238 ft | 422 kts | 220° |
| 2026-05-09 15:50 | 33.74740 | -119.39960 | 23666 ft | 426 kts | 219° |
| 2026-05-09 15:51 | 33.72388 | -119.42144 | 24057 ft | 429 kts | 219° |
| 2026-05-09 15:51 | 33.70022 | -119.44355 | 24432 ft | 432 kts | 220° |
| 2026-05-09 15:51 | 33.67649 | -119.46591 | 24822 ft | 435 kts | 220° |
| 2026-05-09 15:51 | 33.65260 | -119.48834 | 25207 ft | 438 kts | 220° |
| 2026-05-09 15:52 | 33.60425 | -119.53349 | 25955 ft | 443 kts | 220° |
| 2026-05-09 15:52 | 33.58023 | -119.55597 | 26316 ft | 445 kts | 220° |
| 2026-05-09 15:52 | 33.55571 | -119.57888 | 26681 ft | 448 kts | 220° |
| 2026-05-09 15:53 | 33.53105 | -119.60190 | 27039 ft | 450 kts | 220° |
| 2026-05-09 15:53 | 33.50627 | -119.62500 | 27389 ft | 453 kts | 220° |
| 2026-05-09 15:53 | 33.48131 | -119.64825 | 27725 ft | 455 kts | 220° |
| 2026-05-09 15:53 | 33.45625 | -119.67160 | 28060 ft | 458 kts | 220° |
| 2026-05-09 15:54 | 33.43104 | -119.69505 | 28385 ft | 460 kts | 220° |
| 2026-05-09 15:54 | 33.40566 | -119.71865 | 28672 ft | 463 kts | 220° |
| 2026-05-09 15:54 | 33.38011 | -119.74239 | 28988 ft | 466 kts | 220° |
| 2026-05-09 15:54 | 33.35446 | -119.76619 | 29299 ft | 468 kts | 220° |
| 2026-05-09 15:55 | 33.32867 | -119.79012 | 29596 ft | 470 kts | 220° |
| 2026-05-09 15:55 | 33.30275 | -119.81415 | 29883 ft | 473 kts | 220° |
| 2026-05-09 15:55 | 33.27668 | -119.83830 | 30159 ft | 475 kts | 220° |
| 2026-05-09 15:55 | 33.25052 | -119.86250 | 30421 ft | 476 kts | 220° |
| 2026-05-09 15:56 | 33.22464 | -119.88644 | 30669 ft | 478 kts | 220° |
| 2026-05-09 15:56 | 33.19829 | -119.91078 | 30910 ft | 480 kts | 220° |
| 2026-05-09 15:56 | 33.17186 | -119.93519 | 31151 ft | 481 kts | 220° |
| 2026-05-09 15:56 | 33.14533 | -119.95966 | 31386 ft | 483 kts | 220° |
| 2026-05-09 15:57 | 33.11874 | -119.98418 | 31615 ft | 484 kts | 220° |
| 2026-05-09 15:57 | 33.09197 | -120.00884 | 31773 ft | 488 kts | 220° |
| 2026-05-09 15:57 | 33.06507 | -120.03360 | 32004 ft | 489 kts | 220° |
| 2026-05-09 15:57 | 33.03811 | -120.05839 | 32219 ft | 490 kts | 220° |
| 2026-05-09 15:58 | 33.01105 | -120.08326 | 32441 ft | 492 kts | 220° |
| 2026-05-09 15:58 | 32.98393 | -120.10816 | 32635 ft | 493 kts | 220° |
| 2026-05-09 15:58 | 32.95671 | -120.13314 | 32821 ft | 495 kts | 219° |
| 2026-05-09 15:58 | 32.92940 | -120.15817 | 33023 ft | 496 kts | 220° |
| 2026-05-09 15:59 | 32.90238 | -120.18292 | 33213 ft | 497 kts | 219° |
| 2026-05-09 15:59 | 32.87490 | -120.20807 | 33394 ft | 499 kts | 219° |
| 2026-05-09 15:59 | 32.84736 | -120.23327 | 33572 ft | 500 kts | 219° |
| 2026-05-09 15:59 | 32.81973 | -120.25851 | 33761 ft | 501 kts | 219° |
| 2026-05-09 16:00 | 32.79201 | -120.28382 | 33877 ft | 504 kts | 219° |
| 2026-05-09 16:00 | 32.77320 | -120.30099 | 33985 ft | 505 kts | 219° |
| 2026-05-09 16:00 | 32.73624 | -120.33468 | 34195 ft | 507 kts | 219° |
| 2026-05-09 16:00 | 32.70827 | -120.36015 | 34351 ft | 507 kts | 219° |
| 2026-05-09 16:01 | 32.68024 | -120.38567 | 34541 ft | 507 kts | 219° |
| 2026-05-09 16:01 | 32.65228 | -120.41110 | 34757 ft | 506 kts | 219° |
| 2026-05-09 16:01 | 32.62434 | -120.43648 | 34974 ft | 506 kts | 219° |
| 2026-05-09 16:01 | 32.59643 | -120.46182 | 35184 ft | 505 kts | 219° |
| 2026-05-09 16:02 | 32.56858 | -120.48710 | 35383 ft | 504 kts | 219° |
| 2026-05-09 16:02 | 32.51299 | -120.53755 | 35787 ft | 503 kts | 219° |
| 2026-05-09 16:02 | 32.48518 | -120.56273 | 35950 ft | 502 kts | 219° |
| 2026-05-09 16:03 | 32.45780 | -120.58751 | 36088 ft | 503 kts | 219° |
| 2026-05-09 16:03 | 32.42990 | -120.61275 | 36081 ft | 505 kts | 219° |
| 2026-05-09 16:03 | 32.37419 | -120.66307 | 36081 ft | 502 kts | 219° |
| 2026-05-09 16:04 | 32.31873 | -120.71310 | 36070 ft | 501 kts | 219° |
| 2026-05-09 16:04 | 32.26333 | -120.76299 | 36076 ft | 501 kts | 219° |
| 2026-05-09 16:05 | 32.20793 | -120.81281 | 36089 ft | 500 kts | 219° |
| 2026-05-09 16:05 | 32.15248 | -120.86260 | 36088 ft | 502 kts | 219° |
| 2026-05-09 16:06 | 32.09724 | -120.91210 | 36089 ft | 502 kts | 219° |
| 2026-05-09 16:06 | 32.04161 | -120.96189 | 36092 ft | 502 kts | 219° |
| 2026-05-09 16:07 | 31.98597 | -121.01160 | 36089 ft | 502 kts | 219° |
| 2026-05-09 16:07 | 31.93040 | -121.06118 | 36088 ft | 502 kts | 219° |
| 2026-05-09 16:08 | 31.87466 | -121.11083 | 36093 ft | 502 kts | 219° |
| 2026-05-09 16:08 | 31.81935 | -121.16002 | 36096 ft | 502 kts | 219° |
| 2026-05-09 16:09 | 31.76363 | -121.20950 | 36103 ft | 502 kts | 219° |
| 2026-05-09 16:09 | 31.70785 | -121.25895 | 36095 ft | 502 kts | 219° |
| 2026-05-09 16:10 | 31.65215 | -121.30827 | 36097 ft | 502 kts | 219° |
| 2026-05-09 16:10 | 31.59680 | -121.35719 | 36097 ft | 501 kts | 219° |
| 2026-05-09 16:11 | 31.54013 | -121.40486 | 36124 ft | 502 kts | 213° |
| 2026-05-09 16:11 | 31.48073 | -121.44871 | 36113 ft | 505 kts | 214° |
| 2026-05-09 16:12 | 31.42135 | -121.49273 | 36117 ft | 505 kts | 213° |
| 2026-05-09 16:12 | 31.36230 | -121.53630 | 36122 ft | 505 kts | 214° |
| 2026-05-09 16:13 | 31.30292 | -121.58012 | 36123 ft | 505 kts | 213° |
| 2026-05-09 16:13 | 31.24350 | -121.62388 | 36121 ft | 505 kts | 213° |
| 2026-05-09 16:14 | 31.18402 | -121.66762 | 36125 ft | 506 kts | 213° |
| 2026-05-09 16:14 | 31.12442 | -121.71138 | 36127 ft | 506 kts | 213° |
| 2026-05-09 16:15 | 31.06518 | -121.75481 | 36129 ft | 506 kts | 213° |
| 2026-05-09 16:15 | 31.00561 | -121.79843 | 36127 ft | 505 kts | 213° |
| 2026-05-09 16:16 | 30.94606 | -121.84196 | 36120 ft | 506 kts | 213° |
| 2026-05-09 16:16 | 30.88633 | -121.88555 | 36125 ft | 507 kts | 213° |
| 2026-05-09 16:17 | 30.82695 | -121.92883 | 36125 ft | 506 kts | 213° |
| 2026-05-09 16:17 | 30.76730 | -121.97224 | 36125 ft | 505 kts | 213° |
| 2026-05-09 16:18 | 30.70774 | -122.01552 | 36124 ft | 504 kts | 213° |
| 2026-05-09 16:18 | 30.64809 | -122.05880 | 36126 ft | 508 kts | 213° |
| 2026-05-09 16:19 | 30.58839 | -122.10206 | 36131 ft | 509 kts | 213° |
| 2026-05-09 16:19 | 30.52833 | -122.14550 | 36133 ft | 508 kts | 213° |
| 2026-05-09 16:20 | 30.46839 | -122.18881 | 36130 ft | 507 kts | 213° |
| 2026-05-09 16:20 | 30.40854 | -122.23198 | 36129 ft | 508 kts | 213° |
| 2026-05-09 16:21 | 30.34886 | -122.27496 | 36133 ft | 509 kts | 213° |
| 2026-05-09 16:21 | 30.28866 | -122.31826 | 36139 ft | 510 kts | 213° |
| 2026-05-09 16:22 | 30.22837 | -122.36156 | 36136 ft | 510 kts | 212° |
| 2026-05-09 16:22 | 30.16806 | -122.40480 | 36139 ft | 510 kts | 212° |
| 2026-05-09 16:23 | 30.10823 | -122.44765 | 36139 ft | 509 kts | 212° |
| 2026-05-09 16:23 | 30.04798 | -122.49073 | 36138 ft | 511 kts | 212° |
| 2026-05-09 16:24 | 29.98744 | -122.53397 | 36147 ft | 513 kts | 213° |
| 2026-05-09 16:24 | 29.92737 | -122.57831 | 36152 ft | 513 kts | 213° |
| 2026-05-09 16:25 | 29.86707 | -122.62232 | 36148 ft | 513 kts | 213° |
| 2026-05-09 16:25 | 29.80727 | -122.66602 | 36148 ft | 512 kts | 213° |
| 2026-05-09 16:26 | 29.74714 | -122.70992 | 36149 ft | 513 kts | 213° |
| 2026-05-09 16:26 | 29.68677 | -122.75387 | 36154 ft | 514 kts | 213° |
| 2026-05-09 16:27 | 29.62627 | -122.79791 | 36154 ft | 515 kts | 213° |
| 2026-05-09 16:27 | 29.56614 | -122.84157 | 36158 ft | 515 kts | 213° |
| 2026-05-09 16:28 | 29.50562 | -122.88549 | 36162 ft | 515 kts | 213° |
| 2026-05-09 16:28 | 29.44506 | -122.92934 | 36154 ft | 515 kts | 213° |
| 2026-05-09 16:29 | 29.38438 | -122.97323 | 36156 ft | 516 kts | 213° |
| 2026-05-09 16:29 | 29.32399 | -123.01685 | 36159 ft | 516 kts | 213° |
| 2026-05-09 16:30 | 29.26331 | -123.06062 | 36162 ft | 515 kts | 213° |
| 2026-05-09 16:30 | 29.20273 | -123.10425 | 36158 ft | 514 kts | 213° |
| 2026-05-09 16:31 | 29.14231 | -123.14771 | 36156 ft | 512 kts | 213° |
| 2026-05-09 16:31 | 29.08186 | -123.19113 | 36155 ft | 513 kts | 213° |
| 2026-05-09 16:32 | 29.03162 | -123.22715 | 36157 ft | 513 kts | 213° |
| 2026-05-09 16:32 | 28.96139 | -123.27746 | 36159 ft | 513 kts | 213° |
| 2026-05-09 16:33 | 28.90095 | -123.32069 | 36158 ft | 513 kts | 213° |
| 2026-05-09 16:33 | 28.84049 | -123.36387 | 36159 ft | 512 kts | 213° |
| 2026-05-09 16:34 | 28.78047 | -123.40668 | 36161 ft | 512 kts | 212° |
| 2026-05-09 16:34 | 28.72000 | -123.44975 | 36161 ft | 512 kts | 212° |
| 2026-05-09 16:35 | 28.65956 | -123.49273 | 36161 ft | 512 kts | 212° |
| 2026-05-09 16:35 | 28.59913 | -123.53565 | 36161 ft | 512 kts | 212° |
| 2026-05-09 16:36 | 28.47834 | -123.62128 | 36162 ft | 515 kts | 212° |
| 2026-05-09 16:37 | 28.41742 | -123.66437 | 36165 ft | 515 kts | 212° |
| 2026-05-09 16:37 | 28.35661 | -123.70732 | 36164 ft | 514 kts | 212° |
| 2026-05-09 16:38 | 28.29650 | -123.74972 | 36161 ft | 511 kts | 212° |
| 2026-05-09 16:38 | 28.23594 | -123.79239 | 36160 ft | 513 kts | 212° |
| 2026-05-09 16:39 | 28.17513 | -123.83517 | 36167 ft | 515 kts | 212° |
| 2026-05-09 16:39 | 28.11414 | -123.87802 | 36171 ft | 516 kts | 212° |
| 2026-05-09 16:40 | 28.05313 | -123.92082 | 36174 ft | 516 kts | 212° |
| 2026-05-09 16:42 | 27.81029 | -124.09063 | 36160 ft | 513 kts | 212° |
| 2026-05-09 16:42 | 27.74991 | -124.13271 | 36162 ft | 513 kts | 212° |
| 2026-05-09 16:43 | 27.68919 | -124.17498 | 36166 ft | 514 kts | 212° |
| 2026-05-09 16:43 | 27.62833 | -124.21728 | 36161 ft | 514 kts | 212° |
| 2026-05-09 16:44 | 27.56748 | -124.25952 | 36166 ft | 513 kts | 212° |
| 2026-05-09 16:44 | 27.50665 | -124.30169 | 36165 ft | 513 kts | 212° |
| 2026-05-09 16:45 | 27.44637 | -124.34343 | 36165 ft | 512 kts | 212° |
| 2026-05-09 16:45 | 27.38561 | -124.38544 | 36166 ft | 513 kts | 212° |
| 2026-05-09 16:46 | 27.32471 | -124.42749 | 36167 ft | 514 kts | 212° |
| 2026-05-09 16:46 | 27.26361 | -124.46963 | 36173 ft | 516 kts | 212° |
| 2026-05-09 16:47 | 27.20292 | -124.51143 | 36167 ft | 514 kts | 212° |
| 2026-05-09 16:47 | 27.14207 | -124.55329 | 36164 ft | 512 kts | 212° |
| 2026-05-09 16:48 | 27.08130 | -124.59503 | 36163 ft | 512 kts | 212° |
| 2026-05-09 16:48 | 27.02057 | -124.63670 | 36163 ft | 512 kts | 212° |
| 2026-05-09 16:49 | 26.95977 | -124.67836 | 36161 ft | 512 kts | 212° |
| 2026-05-09 16:50 | 26.86883 | -124.74058 | 36162 ft | 513 kts | 212° |
| 2026-05-09 16:50 | 26.80802 | -124.78211 | 36159 ft | 510 kts | 212° |
| 2026-05-09 16:51 | 26.74756 | -124.82335 | 36166 ft | 508 kts | 211° |
| 2026-05-09 16:51 | 26.68717 | -124.86450 | 36164 ft | 509 kts | 211° |
| 2026-05-09 16:52 | 26.62698 | -124.90545 | 36167 ft | 511 kts | 211° |
| 2026-05-09 16:52 | 26.56614 | -124.94680 | 36174 ft | 513 kts | 211° |
| 2026-05-09 16:53 | 26.50519 | -124.98817 | 36178 ft | 512 kts | 211° |
| 2026-05-09 16:53 | 26.44438 | -125.02938 | 36175 ft | 510 kts | 211° |
| 2026-05-09 16:54 | 26.38425 | -125.07009 | 36173 ft | 509 kts | 211° |
| 2026-05-09 16:54 | 26.32379 | -125.11098 | 36169 ft | 508 kts | 211° |
| 2026-05-09 16:55 | 26.26335 | -125.15180 | 36163 ft | 508 kts | 211° |
| 2026-05-09 16:55 | 26.20292 | -125.19257 | 36164 ft | 508 kts | 211° |
| 2026-05-09 16:56 | 26.14242 | -125.23332 | 36159 ft | 508 kts | 211° |
| 2026-05-09 16:56 | 26.08235 | -125.27374 | 36161 ft | 507 kts | 211° |
| 2026-05-09 16:57 | 26.02205 | -125.31427 | 36166 ft | 506 kts | 211° |
| 2026-05-09 16:57 | 25.96178 | -125.35473 | 36166 ft | 506 kts | 211° |
| 2026-05-09 16:58 | 25.90152 | -125.39513 | 36165 ft | 506 kts | 211° |
| 2026-05-09 16:58 | 25.84168 | -125.43520 | 36162 ft | 506 kts | 211° |
| 2026-05-09 16:59 | 25.78136 | -125.47555 | 36167 ft | 507 kts | 211° |
| 2026-05-09 16:59 | 25.72090 | -125.51594 | 36163 ft | 507 kts | 211° |
| 2026-05-09 17:00 | 25.66051 | -125.55623 | 36163 ft | 506 kts | 211° |
| 2026-05-09 17:00 | 25.60056 | -125.59618 | 36166 ft | 506 kts | 211° |
| 2026-05-09 17:01 | 25.54023 | -125.63634 | 36164 ft | 506 kts | 211° |
| 2026-05-09 17:01 | 25.47986 | -125.67648 | 36163 ft | 506 kts | 211° |
| 2026-05-09 17:02 | 25.41953 | -125.71654 | 36160 ft | 505 kts | 211° |
| 2026-05-09 17:02 | 25.35926 | -125.75652 | 36159 ft | 505 kts | 211° |
| 2026-05-09 17:03 | 25.29942 | -125.79616 | 36160 ft | 504 kts | 211° |
| 2026-05-09 17:05 | 25.05869 | -125.95518 | 36158 ft | 504 kts | 211° |
| 2026-05-09 17:05 | 24.99892 | -125.99456 | 36160 ft | 504 kts | 211° |
| 2026-05-09 17:06 | 24.93867 | -126.03419 | 36160 ft | 504 kts | 211° |
| 2026-05-09 17:06 | 24.87850 | -126.07373 | 36160 ft | 504 kts | 211° |
| 2026-05-09 17:07 | 24.81828 | -126.11326 | 36159 ft | 504 kts | 211° |
| 2026-05-09 17:07 | 24.75846 | -126.15248 | 36158 ft | 503 kts | 211° |
| 2026-05-09 17:08 | 24.69827 | -126.19190 | 36155 ft | 504 kts | 211° |
| 2026-05-09 17:08 | 24.60787 | -126.25102 | 36156 ft | 504 kts | 211° |
| 2026-05-09 17:09 | 24.54808 | -126.29007 | 36157 ft | 503 kts | 211° |
| 2026-05-09 17:09 | 24.48791 | -126.32932 | 36157 ft | 502 kts | 211° |
| 2026-05-09 17:10 | 24.42790 | -126.36842 | 36158 ft | 502 kts | 211° |
| 2026-05-09 17:10 | 24.36777 | -126.40756 | 36160 ft | 502 kts | 211° |
| 2026-05-09 17:11 | 24.30807 | -126.44637 | 36155 ft | 502 kts | 211° |
| 2026-05-09 17:11 | 24.24789 | -126.48545 | 36161 ft | 503 kts | 211° |
| 2026-05-09 17:12 | 24.18782 | -126.52442 | 36156 ft | 501 kts | 210° |
| 2026-05-09 17:12 | 24.12790 | -126.56324 | 36156 ft | 501 kts | 210° |
| 2026-05-09 17:13 | 24.06832 | -126.60180 | 36158 ft | 501 kts | 210° |
| 2026-05-09 17:13 | 24.00834 | -126.64058 | 36157 ft | 501 kts | 210° |
| 2026-05-09 17:14 | 23.94833 | -126.67934 | 36153 ft | 501 kts | 210° |
| 2026-05-09 17:14 | 23.88837 | -126.71803 | 36154 ft | 500 kts | 210° |
| 2026-05-09 17:15 | 23.82889 | -126.75636 | 36156 ft | 500 kts | 210° |
| 2026-05-09 17:15 | 23.76906 | -126.79487 | 36155 ft | 499 kts | 210° |
| 2026-05-09 17:17 | 23.53026 | -126.94819 | 36159 ft | 498 kts | 210° |
| 2026-05-09 17:18 | 23.47058 | -126.98640 | 36160 ft | 498 kts | 210° |
| 2026-05-09 17:18 | 23.41092 | -127.02456 | 36160 ft | 496 kts | 210° |
| 2026-05-09 17:19 | 23.35139 | -127.06260 | 36157 ft | 496 kts | 210° |
| 2026-05-09 17:19 | 23.29226 | -127.10034 | 36157 ft | 496 kts | 210° |
| 2026-05-09 17:20 | 23.23283 | -127.13824 | 36154 ft | 495 kts | 210° |
| 2026-05-09 17:20 | 23.17348 | -127.17604 | 36154 ft | 495 kts | 210° |
| 2026-05-09 17:21 | 23.11409 | -127.21383 | 36153 ft | 495 kts | 210° |
| 2026-05-09 17:21 | 23.05511 | -127.25132 | 36149 ft | 494 kts | 210° |
| 2026-05-09 17:22 | 22.99583 | -127.28896 | 36150 ft | 493 kts | 210° |
| 2026-05-09 17:22 | 22.93658 | -127.32655 | 36148 ft | 493 kts | 211° |
| 2026-05-09 17:23 | 22.87736 | -127.36408 | 36151 ft | 494 kts | 211° |
| 2026-05-09 17:23 | 22.81838 | -127.40141 | 36152 ft | 494 kts | 211° |
| 2026-05-09 17:25 | 22.64057 | -127.51374 | 36145 ft | 492 kts | 211° |
| 2026-05-09 17:25 | 22.58189 | -127.55075 | 36145 ft | 492 kts | 211° |
| 2026-05-09 17:26 | 22.52271 | -127.58802 | 36143 ft | 492 kts | 211° |
| 2026-05-09 17:26 | 22.46341 | -127.62532 | 36145 ft | 493 kts | 211° |
| 2026-05-09 17:27 | 22.40417 | -127.66256 | 36143 ft | 492 kts | 211° |
| 2026-05-09 17:27 | 22.34507 | -127.69967 | 36141 ft | 490 kts | 212° |
| 2026-05-09 17:28 | 22.28678 | -127.73625 | 36137 ft | 486 kts | 212° |
| 2026-05-09 17:28 | 22.22825 | -127.77293 | 36130 ft | 487 kts | 212° |
| 2026-05-09 17:29 | 22.16958 | -127.80967 | 36137 ft | 488 kts | 212° |
| 2026-05-09 17:29 | 22.11080 | -127.84644 | 36148 ft | 488 kts | 212° |
| 2026-05-09 17:30 | 22.05246 | -127.88288 | 36149 ft | 487 kts | 212° |
| 2026-05-09 17:30 | 21.99395 | -127.91942 | 36134 ft | 485 kts | 212° |
| 2026-05-09 17:31 | 21.93553 | -127.95586 | 36138 ft | 486 kts | 212° |
| 2026-05-09 17:32 | 21.78974 | -128.04656 | 36134 ft | 485 kts | 212° |
| 2026-05-09 17:33 | 21.73111 | -128.08274 | 36132 ft | 486 kts | 212° |
| 2026-05-09 17:33 | 21.67261 | -128.11892 | 36126 ft | 484 kts | 212° |
| 2026-05-09 17:34 | 21.61460 | -128.15472 | 36130 ft | 484 kts | 212° |
| 2026-05-09 17:35 | 21.41026 | -128.28059 | 36123 ft | 484 kts | 212° |
| 2026-05-09 17:36 | 21.35233 | -128.31620 | 36118 ft | 482 kts | 212° |
| 2026-05-09 17:36 | 21.29418 | -128.35191 | 36119 ft | 482 kts | 212° |
| 2026-05-09 17:37 | 21.23585 | -128.38771 | 36114 ft | 484 kts | 212° |
| 2026-05-09 17:37 | 21.17736 | -128.42356 | 36116 ft | 485 kts | 212° |
| 2026-05-09 17:38 | 21.11916 | -128.45920 | 36114 ft | 485 kts | 212° |
| 2026-05-09 17:39 | 21.03164 | -128.51275 | 36111 ft | 481 kts | 213° |
| 2026-05-09 17:39 | 20.97351 | -128.54826 | 36100 ft | 481 kts | 213° |
| 2026-05-09 17:40 | 20.91540 | -128.58374 | 36105 ft | 481 kts | 212° |
| 2026-05-09 17:40 | 20.85764 | -128.61897 | 36101 ft | 482 kts | 212° |
| 2026-05-09 17:41 | 20.79941 | -128.65445 | 36105 ft | 482 kts | 213° |
| 2026-05-09 17:41 | 20.74124 | -128.68987 | 36104 ft | 481 kts | 213° |
| 2026-05-09 17:42 | 20.68321 | -128.72517 | 36103 ft | 480 kts | 213° |
| 2026-05-09 17:42 | 20.62515 | -128.76046 | 36101 ft | 481 kts | 213° |
| 2026-05-09 17:43 | 20.56738 | -128.79554 | 36100 ft | 481 kts | 213° |
| 2026-05-09 17:43 | 20.50914 | -128.83087 | 36099 ft | 481 kts | 213° |
| 2026-05-09 17:44 | 20.45111 | -128.86604 | 36105 ft | 478 kts | 213° |
| 2026-05-09 17:44 | 20.39330 | -128.90106 | 36100 ft | 478 kts | 213° |
| 2026-05-09 17:45 | 20.33591 | -128.93578 | 36096 ft | 477 kts | 213° |
| 2026-05-09 17:45 | 20.27821 | -128.97067 | 36097 ft | 477 kts | 213° |
| 2026-05-09 17:46 | 20.22038 | -129.00560 | 36089 ft | 478 kts | 213° |
| 2026-05-09 17:46 | 20.16246 | -129.04055 | 36094 ft | 477 kts | 214° |
| 2026-05-09 17:47 | 20.10547 | -129.07492 | 36089 ft | 473 kts | 214° |
| 2026-05-09 17:47 | 20.04820 | -129.10943 | 36088 ft | 474 kts | 214° |
| 2026-05-09 17:48 | 19.99082 | -129.14397 | 36086 ft | 474 kts | 214° |
| 2026-05-09 17:48 | 19.93351 | -129.17844 | 36086 ft | 473 kts | 214° |
| 2026-05-09 17:49 | 19.87627 | -129.21284 | 36078 ft | 472 kts | 214° |
| 2026-05-09 17:49 | 19.81968 | -129.24681 | 36080 ft | 468 kts | 215° |
| 2026-05-09 17:50 | 19.76305 | -129.28081 | 36079 ft | 467 kts | 215° |
| 2026-05-09 17:50 | 19.68762 | -129.32602 | 36077 ft | 469 kts | 215° |
| 2026-05-09 17:51 | 19.62154 | -129.36558 | 36079 ft | 469 kts | 215° |
| 2026-05-09 17:51 | 19.56472 | -129.39957 | 36077 ft | 469 kts | 215° |
| 2026-05-09 17:52 | 19.50794 | -129.43352 | 36080 ft | 468 kts | 215° |
| 2026-05-09 17:52 | 19.45119 | -129.46741 | 36078 ft | 468 kts | 215° |
| 2026-05-09 17:53 | 19.39444 | -129.50129 | 36076 ft | 468 kts | 215° |
| 2026-05-09 17:53 | 19.33809 | -129.53489 | 36075 ft | 468 kts | 215° |
| 2026-05-09 17:54 | 19.28140 | -129.56866 | 36076 ft | 468 kts | 215° |
| 2026-05-09 17:54 | 19.22472 | -129.60240 | 36080 ft | 467 kts | 216° |
| 2026-05-09 17:55 | 19.16817 | -129.63606 | 36083 ft | 466 kts | 216° |
| 2026-05-09 17:55 | 19.11202 | -129.66943 | 36078 ft | 466 kts | 216° |
| 2026-05-09 17:56 | 19.05534 | -129.70310 | 36084 ft | 468 kts | 216° |
| 2026-05-09 17:57 | 18.97955 | -129.74807 | 36085 ft | 470 kts | 216° |
| 2026-05-09 17:57 | 18.91309 | -129.78746 | 36073 ft | 467 kts | 216° |
| 2026-05-09 17:58 | 18.85689 | -129.82076 | 36067 ft | 466 kts | 216° |
| 2026-05-09 17:58 | 18.80008 | -129.85440 | 36068 ft | 469 kts | 216° |
| 2026-05-09 17:59 | 18.75271 | -129.88239 | 36069 ft | 470 kts | 216° |
| 2026-05-09 17:59 | 18.69569 | -129.91610 | 36069 ft | 470 kts | 216° |
| 2026-05-09 18:00 | 18.63869 | -129.94976 | 36053 ft | 470 kts | 216° |
| 2026-05-09 18:00 | 18.58171 | -129.98338 | 36068 ft | 469 kts | 216° |
| 2026-05-09 18:01 | 18.52514 | -130.01674 | 36068 ft | 469 kts | 216° |
| 2026-05-09 18:01 | 18.46822 | -130.05028 | 36058 ft | 469 kts | 216° |
| 2026-05-09 18:02 | 18.41119 | -130.08385 | 36060 ft | 470 kts | 216° |
| 2026-05-09 18:02 | 18.35400 | -130.11750 | 36060 ft | 471 kts | 216° |
| 2026-05-09 18:03 | 18.29717 | -130.15090 | 36061 ft | 470 kts | 216° |
| 2026-05-09 18:03 | 18.24011 | -130.18442 | 36060 ft | 469 kts | 216° |
| 2026-05-09 18:04 | 18.18325 | -130.21779 | 36053 ft | 467 kts | 216° |
| 2026-05-09 18:04 | 18.11729 | -130.25648 | 36047 ft | 467 kts | 216° |
| 2026-05-09 18:05 | 18.06999 | -130.28421 | 36061 ft | 470 kts | 216° |
| 2026-05-09 18:05 | 18.01286 | -130.31765 | 36050 ft | 470 kts | 216° |
| 2026-05-09 18:06 | 17.95568 | -130.35111 | 36060 ft | 470 kts | 216° |
| 2026-05-09 18:06 | 17.89851 | -130.38455 | 36061 ft | 470 kts | 216° |
| 2026-05-09 18:07 | 17.84132 | -130.41796 | 36062 ft | 470 kts | 216° |
| 2026-05-09 18:07 | 17.78451 | -130.45114 | 36063 ft | 470 kts | 216° |
| 2026-05-09 18:08 | 17.72734 | -130.48449 | 36059 ft | 470 kts | 216° |
| 2026-05-09 18:08 | 17.67013 | -130.51785 | 36060 ft | 471 kts | 216° |
| 2026-05-09 18:09 | 17.61279 | -130.55126 | 36065 ft | 472 kts | 216° |
| 2026-05-09 18:09 | 17.55583 | -130.58440 | 36056 ft | 470 kts | 216° |
| 2026-05-09 18:10 | 17.49871 | -130.61764 | 36051 ft | 469 kts | 216° |
| 2026-05-09 18:10 | 17.44174 | -130.65076 | 36051 ft | 468 kts | 216° |
| 2026-05-09 18:11 | 17.38472 | -130.68389 | 36047 ft | 469 kts | 216° |
| 2026-05-09 18:11 | 17.32799 | -130.71682 | 36057 ft | 469 kts | 216° |
| 2026-05-09 18:12 | 17.27082 | -130.74998 | 36049 ft | 470 kts | 216° |
| 2026-05-09 18:12 | 17.21366 | -130.78311 | 36053 ft | 470 kts | 216° |
| 2026-05-09 18:13 | 17.15647 | -130.81624 | 36048 ft | 470 kts | 216° |
| 2026-05-09 18:13 | 17.09965 | -130.84912 | 36053 ft | 470 kts | 216° |
| 2026-05-09 18:14 | 17.04254 | -130.88216 | 36043 ft | 469 kts | 216° |
| 2026-05-09 18:14 | 16.98545 | -130.91517 | 36034 ft | 469 kts | 216° |
| 2026-05-09 18:15 | 16.92840 | -130.94812 | 36036 ft | 468 kts | 216° |
| 2026-05-09 18:15 | 16.87179 | -130.98079 | 36034 ft | 468 kts | 216° |
| 2026-05-09 18:16 | 16.81477 | -131.01368 | 36039 ft | 468 kts | 216° |
| 2026-05-09 18:16 | 16.75780 | -131.04652 | 36037 ft | 468 kts | 216° |
| 2026-05-09 18:17 | 16.70059 | -131.07949 | 36044 ft | 471 kts | 216° |
| 2026-05-09 18:17 | 16.64361 | -131.11227 | 36047 ft | 471 kts | 216° |
| 2026-05-09 18:18 | 16.58620 | -131.14530 | 36044 ft | 471 kts | 216° |
| 2026-05-09 18:18 | 16.52883 | -131.17828 | 36043 ft | 471 kts | 216° |
| 2026-05-09 18:19 | 16.47145 | -131.21124 | 36044 ft | 471 kts | 216° |
| 2026-05-09 18:19 | 16.38578 | -131.26041 | 36040 ft | 471 kts | 216° |
| 2026-05-09 18:20 | 16.32840 | -131.29331 | 36040 ft | 471 kts | 216° |
| 2026-05-09 18:20 | 16.27103 | -131.32619 | 36037 ft | 471 kts | 216° |
| 2026-05-09 18:21 | 16.21365 | -131.35905 | 36028 ft | 471 kts | 216° |
| 2026-05-09 18:21 | 16.15631 | -131.39187 | 36028 ft | 470 kts | 215° |
| 2026-05-09 18:22 | 16.09934 | -131.42445 | 36027 ft | 470 kts | 215° |
| 2026-05-09 18:22 | 16.04199 | -131.45723 | 36030 ft | 470 kts | 215° |
| 2026-05-09 18:23 | 15.98462 | -131.49000 | 36027 ft | 471 kts | 215° |
| 2026-05-09 18:23 | 15.92723 | -131.52275 | 36033 ft | 471 kts | 215° |
| 2026-05-09 18:24 | 15.86983 | -131.55550 | 36012 ft | 471 kts | 215° |
| 2026-05-09 18:25 | 15.78394 | -131.60446 | 36026 ft | 474 kts | 215° |
| 2026-05-09 18:25 | 15.72613 | -131.63737 | 36032 ft | 474 kts | 215° |
| 2026-05-09 18:26 | 15.66840 | -131.67023 | 36034 ft | 473 kts | 215° |
| 2026-05-09 18:26 | 15.61113 | -131.70280 | 36035 ft | 472 kts | 215° |
| 2026-05-09 18:27 | 15.55350 | -131.73555 | 36021 ft | 472 kts | 215° |
| 2026-05-09 18:27 | 15.49591 | -131.76827 | 36021 ft | 472 kts | 215° |
| 2026-05-09 18:28 | 15.43820 | -131.80103 | 36015 ft | 474 kts | 215° |
| 2026-05-09 18:28 | 15.38063 | -131.83369 | 36019 ft | 476 kts | 215° |
| 2026-05-09 18:29 | 15.32257 | -131.86659 | 36021 ft | 475 kts | 215° |
| 2026-05-09 18:29 | 15.26470 | -131.89939 | 36004 ft | 474 kts | 215° |
| 2026-05-09 18:30 | 15.20693 | -131.93210 | 36017 ft | 474 kts | 215° |
| 2026-05-09 18:30 | 15.14897 | -131.96490 | 36014 ft | 476 kts | 215° |
| 2026-05-09 18:31 | 15.09119 | -131.99757 | 36016 ft | 476 kts | 215° |
| 2026-05-09 18:31 | 15.03301 | -132.03045 | 36018 ft | 477 kts | 215° |
| 2026-05-09 18:32 | 14.97472 | -132.06337 | 36019 ft | 477 kts | 215° |
| 2026-05-09 18:32 | 14.91655 | -132.09620 | 36014 ft | 475 kts | 214° |
| 2026-05-09 18:33 | 14.85903 | -132.12865 | 36006 ft | 473 kts | 214° |
| 2026-05-09 18:33 | 14.80122 | -132.16125 | 36008 ft | 474 kts | 214° |
| 2026-05-09 18:34 | 14.74328 | -132.19388 | 36009 ft | 475 kts | 214° |
| 2026-05-09 18:34 | 14.68515 | -132.22662 | 36006 ft | 477 kts | 214° |
| 2026-05-09 18:35 | 14.62723 | -132.25921 | 36008 ft | 478 kts | 214° |
| 2026-05-09 18:35 | 14.56894 | -132.29198 | 36009 ft | 476 kts | 214° |
| 2026-05-09 18:36 | 14.51079 | -132.32466 | 36007 ft | 475 kts | 214° |
| 2026-05-09 18:36 | 14.45281 | -132.35722 | 36003 ft | 474 kts | 214° |
| 2026-05-09 18:37 | 14.39492 | -132.38971 | 36002 ft | 474 kts | 214° |
| 2026-05-09 18:37 | 14.33724 | -132.42207 | 36007 ft | 476 kts | 214° |
| 2026-05-09 18:38 | 14.27893 | -132.45474 | 36011 ft | 477 kts | 214° |
| 2026-05-09 18:38 | 14.22067 | -132.48737 | 36012 ft | 476 kts | 214° |
| 2026-05-09 18:40 | 13.98908 | -132.61693 | 36001 ft | 476 kts | 213° |
| 2026-05-09 18:41 | 13.93079 | -132.64948 | 36000 ft | 477 kts | 213° |
| 2026-05-09 18:41 | 13.87283 | -132.68184 | 36006 ft | 477 kts | 213° |
| 2026-05-09 18:42 | 13.81448 | -132.71439 | 36003 ft | 477 kts | 213° |
| 2026-05-09 18:42 | 13.75617 | -132.74691 | 36009 ft | 477 kts | 213° |
| 2026-05-09 18:43 | 13.69789 | -132.77939 | 35992 ft | 476 kts | 212° |
| 2026-05-09 18:43 | 13.64003 | -132.81161 | 35993 ft | 476 kts | 212° |
| 2026-05-09 18:44 | 13.58175 | -132.84405 | 35993 ft | 476 kts | 212° |
| 2026-05-09 18:44 | 13.52352 | -132.87645 | 35993 ft | 476 kts | 212° |
| 2026-05-09 18:45 | 13.46527 | -132.90883 | 35988 ft | 476 kts | 212° |
| 2026-05-09 18:45 | 13.40742 | -132.94098 | 35994 ft | 476 kts | 212° |
| 2026-05-09 18:46 | 13.34919 | -132.97332 | 35987 ft | 476 kts | 212° |
| 2026-05-09 18:46 | 13.29095 | -133.00565 | 35988 ft | 476 kts | 212° |
| 2026-05-09 18:47 | 13.23273 | -133.03795 | 35990 ft | 476 kts | 212° |
| 2026-05-09 18:47 | 13.17452 | -133.07023 | 35985 ft | 476 kts | 212° |
| 2026-05-09 18:48 | 13.11666 | -133.10230 | 35993 ft | 477 kts | 212° |
| 2026-05-09 18:48 | 13.05819 | -133.13468 | 35989 ft | 478 kts | 212° |
| 2026-05-09 18:49 | 12.99963 | -133.16709 | 35989 ft | 479 kts | 212° |
| 2026-05-09 18:49 | 12.94099 | -133.19954 | 35997 ft | 479 kts | 212° |
| 2026-05-09 18:50 | 12.88240 | -133.23194 | 35994 ft | 479 kts | 212° |
| 2026-05-09 18:50 | 12.82417 | -133.26413 | 35991 ft | 480 kts | 212° |
| 2026-05-09 18:51 | 12.76523 | -133.29669 | 35995 ft | 482 kts | 212° |
| 2026-05-09 18:51 | 12.70625 | -133.32925 | 35990 ft | 481 kts | 212° |
| 2026-05-09 18:52 | 12.64738 | -133.36174 | 35981 ft | 481 kts | 212° |
| 2026-05-09 18:52 | 12.58894 | -133.39396 | 35987 ft | 480 kts | 212° |
| 2026-05-09 18:53 | 12.53007 | -133.42642 | 35986 ft | 481 kts | 211° |
| 2026-05-09 18:53 | 12.47101 | -133.45895 | 35985 ft | 483 kts | 211° |
| 2026-05-09 18:54 | 12.41182 | -133.49154 | 35990 ft | 483 kts | 211° |
| 2026-05-09 18:54 | 12.35301 | -133.52392 | 35989 ft | 483 kts | 211° |
| 2026-05-09 18:55 | 12.29381 | -133.55648 | 35987 ft | 483 kts | 211° |
| 2026-05-09 18:55 | 12.23463 | -133.58902 | 35983 ft | 484 kts | 211° |
| 2026-05-09 18:56 | 12.17523 | -133.62165 | 35980 ft | 485 kts | 211° |
| 2026-05-09 18:56 | 12.11613 | -133.65412 | 35981 ft | 485 kts | 211° |
| 2026-05-09 18:57 | 12.05676 | -133.68671 | 35980 ft | 484 kts | 211° |
| 2026-05-09 18:57 | 11.99745 | -133.71925 | 35978 ft | 483 kts | 211° |
| 2026-05-09 18:58 | 11.93823 | -133.75173 | 35974 ft | 483 kts | 211° |
| 2026-05-09 18:58 | 11.87881 | -133.78430 | 35977 ft | 486 kts | 211° |
| 2026-05-09 18:59 | 11.81958 | -133.81675 | 35978 ft | 486 kts | 211° |
| 2026-05-09 18:59 | 11.76003 | -133.84936 | 35975 ft | 485 kts | 210° |
| 2026-05-09 19:00 | 11.70062 | -133.88188 | 35969 ft | 484 kts | 210° |
| 2026-05-09 19:00 | 11.61152 | -133.93062 | 35975 ft | 487 kts | 210° |
| 2026-05-09 19:01 | 11.55216 | -133.96306 | 35977 ft | 488 kts | 210° |
| 2026-05-09 19:01 | 11.49244 | -133.99569 | 35974 ft | 487 kts | 210° |
| 2026-05-09 19:02 | 11.43267 | -134.02833 | 35975 ft | 487 kts | 210° |
| 2026-05-09 19:02 | 11.37306 | -134.06087 | 35968 ft | 485 kts | 210° |
| 2026-05-09 19:03 | 11.31381 | -134.09320 | 35967 ft | 488 kts | 210° |
| 2026-05-09 19:03 | 11.25383 | -134.12590 | 35969 ft | 489 kts | 210° |
| 2026-05-09 19:04 | 11.19395 | -134.15854 | 35972 ft | 487 kts | 210° |
| 2026-05-09 19:04 | 11.13417 | -134.19112 | 35971 ft | 488 kts | 210° |
| 2026-05-09 19:05 | 11.07428 | -134.22373 | 35969 ft | 489 kts | 210° |
| 2026-05-09 19:05 | 11.01461 | -134.25621 | 35968 ft | 490 kts | 210° |
| 2026-05-09 19:06 | 10.95447 | -134.28893 | 35969 ft | 490 kts | 210° |
| 2026-05-09 19:06 | 10.89431 | -134.32164 | 35970 ft | 490 kts | 210° |
| 2026-05-09 19:07 | 10.83426 | -134.35428 | 35969 ft | 489 kts | 210° |
| 2026-05-09 19:07 | 10.77467 | -134.38667 | 35958 ft | 489 kts | 210° |
| 2026-05-09 19:08 | 10.71466 | -134.41925 | 35955 ft | 488 kts | 210° |
| 2026-05-09 19:08 | 10.65483 | -134.45172 | 35953 ft | 487 kts | 210° |
| 2026-05-09 19:09 | 10.59501 | -134.48418 | 35954 ft | 487 kts | 210° |
| 2026-05-09 19:09 | 10.53561 | -134.51640 | 35952 ft | 488 kts | 210° |
| 2026-05-09 19:10 | 10.47576 | -134.54884 | 35950 ft | 487 kts | 210° |
| 2026-05-09 19:10 | 10.41592 | -134.58127 | 35950 ft | 488 kts | 210° |
| 2026-05-09 19:11 | 10.35604 | -134.61370 | 35954 ft | 488 kts | 210° |
| 2026-05-09 19:11 | 10.29660 | -134.64588 | 35952 ft | 487 kts | 210° |
| 2026-05-09 19:12 | 10.23680 | -134.67823 | 35953 ft | 488 kts | 210° |
| 2026-05-09 19:12 | 10.17692 | -134.71063 | 35948 ft | 487 kts | 210° |
| 2026-05-09 19:13 | 10.11713 | -134.74295 | 35950 ft | 487 kts | 210° |
| 2026-05-09 19:13 | 10.05771 | -134.77507 | 35950 ft | 488 kts | 210° |
| 2026-05-09 19:14 | 9.99784 | -134.80741 | 35948 ft | 488 kts | 210° |
| 2026-05-09 19:14 | 9.93800 | -134.83972 | 35949 ft | 487 kts | 210° |
| 2026-05-09 19:15 | 9.87817 | -134.87202 | 35948 ft | 487 kts | 209° |
| 2026-05-09 19:15 | 9.81844 | -134.90424 | 35949 ft | 486 kts | 209° |
| 2026-05-09 19:16 | 9.75918 | -134.93621 | 35950 ft | 486 kts | 209° |
| 2026-05-09 19:16 | 9.69949 | -134.96838 | 35950 ft | 487 kts | 209° |
| 2026-05-09 19:17 | 9.63970 | -135.00061 | 35951 ft | 487 kts | 209° |
| 2026-05-09 19:17 | 9.57993 | -135.03280 | 35951 ft | 487 kts | 209° |
| 2026-05-09 19:18 | 9.52065 | -135.06472 | 35952 ft | 487 kts | 209° |
| 2026-05-09 19:18 | 9.46090 | -135.09688 | 35954 ft | 487 kts | 209° |
| 2026-05-09 19:19 | 9.40118 | -135.12901 | 35949 ft | 486 kts | 209° |
| 2026-05-09 19:19 | 9.34146 | -135.16113 | 35952 ft | 487 kts | 208° |
| 2026-05-09 19:20 | 9.28206 | -135.19306 | 35953 ft | 487 kts | 208° |
| 2026-05-09 19:20 | 9.22228 | -135.22519 | 35953 ft | 487 kts | 209° |
| 2026-05-09 19:21 | 9.16246 | -135.25732 | 35950 ft | 487 kts | 208° |
| 2026-05-09 19:21 | 9.10260 | -135.28947 | 35951 ft | 488 kts | 208° |
| 2026-05-09 19:22 | 9.04311 | -135.32140 | 35951 ft | 488 kts | 208° |
| 2026-05-09 19:22 | 8.98322 | -135.35353 | 35951 ft | 487 kts | 208° |
| 2026-05-09 19:23 | 8.92334 | -135.38565 | 35949 ft | 488 kts | 208° |
| 2026-05-09 19:23 | 8.86341 | -135.41779 | 35950 ft | 488 kts | 208° |
| 2026-05-09 19:24 | 8.80383 | -135.44971 | 35949 ft | 488 kts | 208° |
| 2026-05-09 19:24 | 8.74386 | -135.48185 | 35949 ft | 488 kts | 208° |
| 2026-05-09 19:25 | 8.68387 | -135.51398 | 35949 ft | 488 kts | 208° |
| 2026-05-09 19:25 | 8.62392 | -135.54608 | 35949 ft | 488 kts | 208° |
| 2026-05-09 19:26 | 8.56427 | -135.57800 | 35949 ft | 489 kts | 208° |
| 2026-05-09 19:26 | 8.50427 | -135.61010 | 35944 ft | 487 kts | 208° |
| 2026-05-09 19:27 | 8.44442 | -135.64211 | 35944 ft | 487 kts | 208° |
| 2026-05-09 19:27 | 8.38454 | -135.67412 | 35943 ft | 487 kts | 208° |
| 2026-05-09 19:28 | 8.32498 | -135.70595 | 35945 ft | 487 kts | 208° |
| 2026-05-09 19:28 | 8.26511 | -135.73793 | 35946 ft | 486 kts | 208° |
| 2026-05-09 19:29 | 8.20525 | -135.76990 | 35945 ft | 487 kts | 208° |
| 2026-05-09 19:29 | 8.14532 | -135.80190 | 35938 ft | 486 kts | 208° |
| 2026-05-09 19:30 | 8.08544 | -135.83386 | 35938 ft | 486 kts | 208° |
| 2026-05-09 19:30 | 8.02596 | -135.86559 | 35936 ft | 486 kts | 208° |
| 2026-05-09 19:31 | 7.96606 | -135.89754 | 35937 ft | 487 kts | 208° |
| 2026-05-09 19:31 | 7.90608 | -135.92951 | 35940 ft | 487 kts | 208° |
| 2026-05-09 19:32 | 7.84607 | -135.96150 | 35940 ft | 488 kts | 208° |
| 2026-05-09 19:32 | 7.78596 | -135.99353 | 35939 ft | 488 kts | 208° |
| 2026-05-09 19:33 | 7.72631 | -136.02530 | 35938 ft | 488 kts | 208° |
| 2026-05-09 19:33 | 7.66634 | -136.05723 | 35938 ft | 487 kts | 208° |
| 2026-05-09 19:34 | 7.60634 | -136.08917 | 35939 ft | 488 kts | 208° |
| 2026-05-09 19:34 | 7.54665 | -136.12093 | 35941 ft | 489 kts | 208° |
| 2026-05-09 19:35 | 7.48658 | -136.15289 | 35938 ft | 488 kts | 208° |
| 2026-05-09 19:35 | 7.42657 | -136.18480 | 35936 ft | 488 kts | 208° |
| 2026-05-09 19:36 | 7.36657 | -136.21670 | 35939 ft | 489 kts | 208° |
| 2026-05-09 19:36 | 7.30690 | -136.24841 | 35939 ft | 488 kts | 208° |
| 2026-05-09 19:37 | 7.24687 | -136.28030 | 35932 ft | 488 kts | 208° |
| 2026-05-09 19:37 | 7.18680 | -136.31220 | 35932 ft | 488 kts | 208° |
| 2026-05-09 19:38 | 7.12672 | -136.34410 | 35936 ft | 488 kts | 208° |
| 2026-05-09 19:38 | 7.06662 | -136.37600 | 35931 ft | 489 kts | 208° |
| 2026-05-09 19:39 | 7.00649 | -136.40791 | 35933 ft | 494 kts | 208° |
| 2026-05-09 19:39 | 6.94576 | -136.44012 | 35934 ft | 492 kts | 208° |
| 2026-05-09 19:40 | 6.88517 | -136.47225 | 35940 ft | 492 kts | 208° |
| 2026-05-09 19:40 | 6.82458 | -136.50437 | 35935 ft | 492 kts | 208° |
| 2026-05-09 19:41 | 6.76435 | -136.53630 | 35932 ft | 493 kts | 208° |
| 2026-05-09 19:41 | 6.70370 | -136.56843 | 35932 ft | 492 kts | 208° |
| 2026-05-09 19:42 | 6.64292 | -136.60062 | 35931 ft | 495 kts | 208° |
| 2026-05-09 19:42 | 6.58204 | -136.63286 | 35932 ft | 494 kts | 208° |
| 2026-05-09 19:43 | 6.52169 | -136.66481 | 35929 ft | 493 kts | 208° |
| 2026-05-09 19:43 | 6.46099 | -136.69693 | 35929 ft | 493 kts | 208° |
| 2026-05-09 19:44 | 6.40030 | -136.72905 | 35928 ft | 493 kts | 208° |
| 2026-05-09 19:44 | 6.33953 | -136.76119 | 35929 ft | 494 kts | 208° |
| 2026-05-09 19:45 | 6.27906 | -136.79316 | 35933 ft | 495 kts | 208° |
| 2026-05-09 19:45 | 6.21813 | -136.82538 | 35933 ft | 495 kts | 208° |
| 2026-05-09 19:46 | 6.15724 | -136.85756 | 35930 ft | 494 kts | 208° |
| 2026-05-09 19:46 | 6.09636 | -136.88973 | 35927 ft | 495 kts | 208° |
| 2026-05-09 19:47 | 6.03493 | -136.92218 | 35933 ft | 502 kts | 208° |
| 2026-05-09 19:47 | 5.97369 | -136.95452 | 35928 ft | 500 kts | 208° |
| 2026-05-09 19:48 | 5.91209 | -136.98705 | 35920 ft | 500 kts | 208° |
| 2026-05-09 19:48 | 5.85047 | -137.01957 | 35920 ft | 501 kts | 208° |
| 2026-05-09 19:49 | 5.78887 | -137.05208 | 35923 ft | 500 kts | 208° |
| 2026-05-09 19:49 | 5.72776 | -137.08432 | 35922 ft | 500 kts | 208° |
| 2026-05-09 19:50 | 5.66620 | -137.11679 | 35920 ft | 500 kts | 208° |
| 2026-05-09 19:50 | 5.60465 | -137.14925 | 35919 ft | 500 kts | 208° |
| 2026-05-09 19:51 | 5.54301 | -137.18174 | 35916 ft | 503 kts | 208° |
| 2026-05-09 19:51 | 5.48140 | -137.21422 | 35919 ft | 503 kts | 208° |
| 2026-05-09 19:52 | 5.41951 | -137.24683 | 35921 ft | 502 kts | 208° |
| 2026-05-09 19:52 | 5.35764 | -137.27943 | 35919 ft | 501 kts | 208° |
| 2026-05-09 19:53 | 5.29583 | -137.31198 | 35919 ft | 502 kts | 208° |
| 2026-05-09 19:53 | 5.23394 | -137.34457 | 35916 ft | 502 kts | 208° |
| 2026-05-09 19:54 | 5.17244 | -137.37695 | 35919 ft | 502 kts | 208° |
| 2026-05-09 19:54 | 5.11060 | -137.40950 | 35917 ft | 502 kts | 208° |
| 2026-05-09 19:55 | 5.04881 | -137.44202 | 35920 ft | 502 kts | 208° |
| 2026-05-09 19:56 | 4.95602 | -137.49084 | 35918 ft | 502 kts | 208° |
| 2026-05-09 19:56 | 4.89456 | -137.52316 | 35920 ft | 502 kts | 208° |
| 2026-05-09 19:57 | 4.83267 | -137.55571 | 35919 ft | 502 kts | 208° |
| 2026-05-09 19:57 | 4.77081 | -137.58823 | 35919 ft | 502 kts | 207° |
| 2026-05-09 19:58 | 4.70880 | -137.62082 | 35920 ft | 504 kts | 207° |
| 2026-05-09 19:58 | 4.64721 | -137.65319 | 35920 ft | 504 kts | 207° |
| 2026-05-09 19:59 | 4.58517 | -137.68579 | 35921 ft | 504 kts | 207° |
| 2026-05-09 19:59 | 4.52320 | -137.71834 | 35921 ft | 503 kts | 207° |
| 2026-05-09 20:00 | 4.46115 | -137.75093 | 35919 ft | 505 kts | 207° |
| 2026-05-09 20:00 | 4.39892 | -137.78361 | 35921 ft | 505 kts | 207° |
| 2026-05-09 20:01 | 4.33714 | -137.81605 | 35919 ft | 504 kts | 207° |
| 2026-05-09 20:01 | 4.27511 | -137.84860 | 35919 ft | 502 kts | 207° |
| 2026-05-09 20:02 | 4.21311 | -137.88114 | 35917 ft | 503 kts | 207° |
| 2026-05-09 20:02 | 4.15101 | -137.91372 | 35918 ft | 504 kts | 207° |
| 2026-05-09 20:03 | 4.05835 | -137.96234 | 35915 ft | 503 kts | 207° |
| 2026-05-09 20:03 | 3.99625 | -137.99491 | 35916 ft | 504 kts | 207° |
| 2026-05-09 20:04 | 3.93415 | -138.02747 | 35922 ft | 503 kts | 207° |
| 2026-05-09 20:04 | 3.87218 | -138.05997 | 35924 ft | 502 kts | 207° |
| 2026-05-09 20:05 | 3.81070 | -138.09220 | 35926 ft | 503 kts | 207° |
| 2026-05-09 20:05 | 3.74875 | -138.12467 | 35927 ft | 503 kts | 207° |
| 2026-05-09 20:06 | 3.68678 | -138.15714 | 35926 ft | 503 kts | 207° |
| 2026-05-09 20:06 | 3.62494 | -138.18955 | 35921 ft | 501 kts | 207° |
| 2026-05-09 20:07 | 3.56355 | -138.22171 | 35925 ft | 501 kts | 207° |
| 2026-05-09 20:07 | 3.50186 | -138.25402 | 35925 ft | 499 kts | 207° |
| 2026-05-09 20:08 | 3.40866 | -138.30067 | 35922 ft | 500 kts | 206° |
| 2026-05-09 20:09 | 3.34639 | -138.33225 | 35924 ft | 502 kts | 206° |
| 2026-05-09 20:09 | 3.28429 | -138.36329 | 35924 ft | 503 kts | 206° |
| 2026-05-09 20:10 | 3.22178 | -138.39474 | 35927 ft | 503 kts | 206° |
| 2026-05-09 20:10 | 3.15926 | -138.42609 | 35928 ft | 502 kts | 206° |
| 2026-05-09 20:11 | 3.09682 | -138.45744 | 35923 ft | 500 kts | 207° |
| 2026-05-09 20:11 | 3.03480 | -138.48857 | 35921 ft | 498 kts | 206° |
| 2026-05-09 20:12 | 2.97324 | -138.51945 | 35921 ft | 498 kts | 207° |
| 2026-05-09 20:12 | 2.91126 | -138.55055 | 35921 ft | 499 kts | 206° |
| 2026-05-09 20:13 | 2.84916 | -138.58171 | 35922 ft | 500 kts | 206° |
| 2026-05-09 20:13 | 2.78647 | -138.61316 | 35928 ft | 507 kts | 206° |
| 2026-05-09 20:14 | 2.72353 | -138.64472 | 35926 ft | 505 kts | 206° |
| 2026-05-09 20:14 | 2.66126 | -138.67595 | 35924 ft | 503 kts | 207° |
| 2026-05-09 20:15 | 2.59872 | -138.70731 | 35920 ft | 502 kts | 207° |
| 2026-05-09 20:15 | 2.53622 | -138.73865 | 35920 ft | 503 kts | 206° |
| 2026-05-09 20:16 | 2.47346 | -138.77011 | 35924 ft | 505 kts | 206° |
| 2026-05-09 20:16 | 2.41101 | -138.80141 | 35928 ft | 506 kts | 206° |
| 2026-05-09 20:17 | 2.34812 | -138.83294 | 35926 ft | 505 kts | 206° |
| 2026-05-09 20:17 | 2.28542 | -138.86436 | 35929 ft | 503 kts | 206° |
| 2026-05-09 20:18 | 2.22330 | -138.89549 | 35920 ft | 497 kts | 206° |
| 2026-05-09 20:18 | 2.16138 | -138.92651 | 35921 ft | 499 kts | 206° |
| 2026-05-09 20:19 | 2.09958 | -138.95748 | 35926 ft | 501 kts | 206° |
| 2026-05-09 20:19 | 2.03724 | -138.98871 | 35929 ft | 501 kts | 206° |
| 2026-05-09 20:20 | 1.97504 | -139.01987 | 35922 ft | 499 kts | 206° |
| 2026-05-09 20:20 | 1.91309 | -139.05090 | 35920 ft | 498 kts | 206° |
| 2026-05-09 20:21 | 1.85151 | -139.08174 | 35922 ft | 499 kts | 206° |
| 2026-05-09 20:21 | 1.78942 | -139.11284 | 35925 ft | 499 kts | 206° |
| 2026-05-09 20:22 | 1.72736 | -139.14392 | 35926 ft | 499 kts | 206° |
| 2026-05-09 20:22 | 1.66535 | -139.17496 | 35924 ft | 498 kts | 207° |
| 2026-05-09 20:23 | 1.60345 | -139.20596 | 35928 ft | 497 kts | 207° |
| 2026-05-09 20:23 | 1.54200 | -139.23673 | 35928 ft | 497 kts | 207° |
| 2026-05-09 20:24 | 1.48013 | -139.26771 | 35929 ft | 497 kts | 207° |
| 2026-05-09 20:24 | 1.41823 | -139.29868 | 35927 ft | 498 kts | 207° |
| 2026-05-09 20:25 | 1.35621 | -139.32974 | 35929 ft | 499 kts | 207° |
| 2026-05-09 20:25 | 1.29465 | -139.36055 | 35928 ft | 498 kts | 207° |
| 2026-05-09 20:26 | 1.23264 | -139.39159 | 35928 ft | 498 kts | 207° |
| 2026-05-09 20:26 | 1.17062 | -139.42262 | 35929 ft | 498 kts | 207° |
| 2026-05-09 20:27 | 1.10862 | -139.45365 | 35915 ft | 498 kts | 208° |
| 2026-05-09 20:27 | 1.04676 | -139.48461 | 35918 ft | 496 kts | 208° |
| 2026-05-09 20:28 | 0.98550 | -139.51527 | 35909 ft | 495 kts | 208° |
| 2026-05-09 20:28 | 0.92378 | -139.54616 | 35915 ft | 497 kts | 208° |
| 2026-05-09 20:29 | 0.83091 | -139.59262 | 35918 ft | 497 kts | 208° |
| 2026-05-09 20:29 | 0.76923 | -139.62349 | 35919 ft | 496 kts | 208° |
| 2026-05-09 20:30 | 0.70802 | -139.65411 | 35915 ft | 495 kts | 208° |
| 2026-05-09 20:30 | 0.64644 | -139.68492 | 35915 ft | 495 kts | 208° |
| 2026-05-09 20:31 | 0.58490 | -139.71571 | 35912 ft | 495 kts | 208° |
| 2026-05-09 20:31 | 0.52339 | -139.74649 | 35919 ft | 493 kts | 208° |
| 2026-05-09 20:32 | 0.46238 | -139.77701 | 35922 ft | 494 kts | 208° |
| 2026-05-09 20:32 | 0.40073 | -139.80785 | 35931 ft | 497 kts | 208° |
| 2026-05-09 20:33 | 0.33893 | -139.83877 | 35925 ft | 496 kts | 208° |
| 2026-05-09 20:33 | 0.27725 | -139.86963 | 35920 ft | 495 kts | 208° |
| 2026-05-09 20:34 | 0.21571 | -139.90041 | 35926 ft | 494 kts | 208° |
| 2026-05-09 20:34 | 0.15471 | -139.93093 | 35926 ft | 493 kts | 208° |
| 2026-05-09 20:35 | 0.09333 | -139.96163 | 35920 ft | 494 kts | 208° |
| 2026-05-09 20:35 | 0.03187 | -139.99238 | 35919 ft | 494 kts | 208° |
| 2026-05-09 20:36 | -0.01917 | -140.01791 | 35919 ft | 493 kts | 208° |
| 2026-05-09 20:36 | -0.09041 | -140.05350 | 35917 ft | 492 kts | 208° |
| 2026-05-09 20:37 | -0.15178 | -140.08416 | 35922 ft | 494 kts | 208° |
| 2026-05-09 20:37 | -0.20290 | -140.10970 | 35925 ft | 495 kts | 208° |
| 2026-05-09 20:38 | -0.26450 | -140.14049 | 35921 ft | 495 kts | 208° |
| 2026-05-09 20:38 | -0.33601 | -140.17622 | 35917 ft | 494 kts | 208° |
| 2026-05-09 20:39 | -0.38743 | -140.20191 | 35920 ft | 493 kts | 208° |
| 2026-05-09 20:39 | -0.44827 | -140.23231 | 35920 ft | 492 kts | 208° |
| 2026-05-09 20:40 | -0.50948 | -140.26290 | 35917 ft | 492 kts | 208° |
| 2026-05-09 20:40 | -0.57068 | -140.29349 | 35916 ft | 492 kts | 207° |
| 2026-05-09 20:41 | -0.63183 | -140.32405 | 35917 ft | 491 kts | 208° |
| 2026-05-09 20:41 | -0.69258 | -140.35440 | 35924 ft | 492 kts | 208° |
| 2026-05-09 20:42 | -0.75379 | -140.38500 | 35919 ft | 492 kts | 208° |
| 2026-05-09 20:42 | -0.81493 | -140.41556 | 35922 ft | 491 kts | 207° |
| 2026-05-09 20:43 | -0.87615 | -140.44615 | 35927 ft | 492 kts | 208° |
| 2026-05-09 20:43 | -0.93736 | -140.47674 | 35929 ft | 492 kts | 208° |
| 2026-05-09 20:44 | -0.99818 | -140.50715 | 35924 ft | 492 kts | 208° |
| 2026-05-09 20:44 | -1.05933 | -140.53771 | 35921 ft | 491 kts | 208° |
| 2026-05-09 20:45 | -1.12056 | -140.56832 | 35921 ft | 492 kts | 208° |
| 2026-05-09 20:45 | -1.18174 | -140.59890 | 35919 ft | 492 kts | 208° |
| 2026-05-09 20:46 | -1.24260 | -140.62934 | 35924 ft | 494 kts | 208° |
| 2026-05-09 20:46 | -1.30410 | -140.66008 | 35924 ft | 495 kts | 208° |
| 2026-05-09 20:47 | -1.36564 | -140.69084 | 35932 ft | 495 kts | 208° |
| 2026-05-09 20:47 | -1.42723 | -140.72165 | 35924 ft | 495 kts | 208° |
| 2026-05-09 20:48 | -1.48836 | -140.75221 | 35924 ft | 495 kts | 208° |
| 2026-05-09 20:48 | -1.54990 | -140.78299 | 35933 ft | 494 kts | 208° |
| 2026-05-09 20:49 | -1.61138 | -140.81373 | 35925 ft | 494 kts | 208° |
| 2026-05-09 20:49 | -1.67284 | -140.84447 | 35926 ft | 494 kts | 208° |
| 2026-05-09 20:50 | -1.73388 | -140.87500 | 35928 ft | 494 kts | 208° |
| 2026-05-09 20:50 | -1.79525 | -140.90569 | 35927 ft | 493 kts | 208° |
| 2026-05-09 20:51 | -1.85655 | -140.93637 | 35922 ft | 492 kts | 208° |
| 2026-05-09 20:51 | -1.91782 | -140.96702 | 35920 ft | 492 kts | 208° |
| 2026-05-09 20:52 | -1.97875 | -140.99750 | 35926 ft | 494 kts | 208° |
| 2026-05-09 20:52 | -2.04030 | -141.02830 | 35931 ft | 495 kts | 208° |
| 2026-05-09 20:53 | -2.10194 | -141.05914 | 35924 ft | 495 kts | 208° |
| 2026-05-09 20:53 | -2.16358 | -141.09000 | 35929 ft | 496 kts | 208° |
| 2026-05-09 20:54 | -2.22531 | -141.12089 | 35929 ft | 496 kts | 208° |
| 2026-05-09 20:54 | -2.28664 | -141.15159 | 35931 ft | 496 kts | 208° |
| 2026-05-09 20:55 | -2.34826 | -141.18244 | 35931 ft | 495 kts | 208° |
| 2026-05-09 20:55 | -2.40978 | -141.21323 | 35929 ft | 494 kts | 208° |
| 2026-05-09 20:56 | -2.50135 | -141.25908 | 35922 ft | 493 kts | 208° |
| 2026-05-09 20:57 | -2.56268 | -141.28980 | 35918 ft | 494 kts | 208° |
| 2026-05-09 20:57 | -2.62418 | -141.32060 | 35920 ft | 495 kts | 208° |
| 2026-05-09 20:58 | -2.68574 | -141.35144 | 35928 ft | 495 kts | 208° |
| 2026-05-09 20:58 | -2.74683 | -141.38203 | 35934 ft | 493 kts | 208° |
| 2026-05-09 20:59 | -2.80810 | -141.41273 | 35924 ft | 492 kts | 208° |
| 2026-05-09 20:59 | -2.86930 | -141.44341 | 35925 ft | 492 kts | 208° |
| 2026-05-09 21:00 | -2.96134 | -141.48953 | 35925 ft | 494 kts | 208° |
| 2026-05-09 21:00 | -3.02280 | -141.52033 | 35931 ft | 493 kts | 208° |
| 2026-05-09 21:01 | -3.08364 | -141.55083 | 35926 ft | 492 kts | 208° |
| 2026-05-09 21:02 | -3.17543 | -141.59684 | 35930 ft | 492 kts | 208° |
| 2026-05-09 21:02 | -3.23652 | -141.62748 | 35925 ft | 491 kts | 208° |
| 2026-05-09 21:03 | -3.29706 | -141.65784 | 35921 ft | 490 kts | 208° |
| 2026-05-09 21:03 | -3.35793 | -141.68837 | 35919 ft | 489 kts | 208° |
| 2026-05-09 21:04 | -3.41875 | -141.71889 | 35928 ft | 490 kts | 208° |
| 2026-05-09 21:04 | -3.47973 | -141.74948 | 35925 ft | 490 kts | 208° |
| 2026-05-09 21:05 | -3.54027 | -141.77985 | 35922 ft | 489 kts | 208° |
| 2026-05-09 21:05 | -3.60113 | -141.81040 | 35921 ft | 490 kts | 208° |
| 2026-05-09 21:06 | -3.66202 | -141.84096 | 35922 ft | 489 kts | 208° |
| 2026-05-09 21:06 | -3.72287 | -141.87151 | 35923 ft | 490 kts | 208° |
| 2026-05-09 21:07 | -3.78373 | -141.90207 | 35924 ft | 490 kts | 208° |
| 2026-05-09 21:07 | -3.84423 | -141.93245 | 35922 ft | 490 kts | 208° |
| 2026-05-09 21:08 | -3.90517 | -141.96306 | 35930 ft | 490 kts | 208° |
| 2026-05-09 21:08 | -3.96608 | -141.99366 | 35930 ft | 490 kts | 208° |
| 2026-05-09 21:09 | -4.02703 | -142.02427 | 35923 ft | 490 kts | 208° |
| 2026-05-09 21:09 | -4.08759 | -142.05471 | 35920 ft | 490 kts | 208° |
| 2026-05-09 21:10 | -4.14832 | -142.08523 | 35920 ft | 488 kts | 208° |
| 2026-05-09 21:10 | -4.20908 | -142.11577 | 35920 ft | 488 kts | 209° |
| 2026-05-09 21:11 | -4.26977 | -142.14629 | 35919 ft | 488 kts | 208° |
| 2026-05-09 21:12 | -4.42093 | -142.22231 | 35919 ft | 488 kts | 208° |
| 2026-05-09 21:12 | -4.48157 | -142.25281 | 35921 ft | 487 kts | 209° |
| 2026-05-09 21:13 | -4.54215 | -142.28330 | 35918 ft | 488 kts | 208° |
| 2026-05-09 21:13 | -4.60225 | -142.31354 | 35918 ft | 485 kts | 208° |
| 2026-05-09 21:14 | -4.66266 | -142.34396 | 35919 ft | 486 kts | 208° |
| 2026-05-09 21:14 | -4.72308 | -142.37438 | 35917 ft | 486 kts | 208° |
| 2026-05-09 21:15 | -4.78354 | -142.40482 | 35915 ft | 486 kts | 208° |
| 2026-05-09 21:15 | -4.84352 | -142.43503 | 35919 ft | 486 kts | 208° |
| 2026-05-09 21:16 | -4.90374 | -142.46537 | 35916 ft | 484 kts | 208° |
| 2026-05-09 21:16 | -4.96399 | -142.49573 | 35920 ft | 484 kts | 208° |
| 2026-05-09 21:17 | -5.02422 | -142.52609 | 35918 ft | 485 kts | 208° |
| 2026-05-09 21:17 | -5.08392 | -142.55624 | 35919 ft | 483 kts | 208° |
| 2026-05-09 21:18 | -5.14394 | -142.58654 | 35920 ft | 483 kts | 208° |
| 2026-05-09 21:18 | -5.20395 | -142.61685 | 35916 ft | 482 kts | 208° |
| 2026-05-09 21:19 | -5.32395 | -142.67747 | 35919 ft | 483 kts | 208° |
| 2026-05-09 21:20 | -5.38354 | -142.70758 | 35920 ft | 483 kts | 208° |
| 2026-05-09 21:20 | -5.44355 | -142.73791 | 35923 ft | 483 kts | 208° |
| 2026-05-09 21:21 | -5.50349 | -142.76822 | 35917 ft | 482 kts | 208° |
| 2026-05-09 21:21 | -5.56333 | -142.79847 | 35915 ft | 481 kts | 208° |
| 2026-05-09 21:22 | -5.62275 | -142.82853 | 35921 ft | 482 kts | 208° |
| 2026-05-09 21:22 | -5.68256 | -142.85879 | 35922 ft | 481 kts | 208° |
| 2026-05-09 21:23 | -5.74234 | -142.88904 | 35922 ft | 481 kts | 208° |
| 2026-05-09 21:23 | -5.80209 | -142.91928 | 35921 ft | 481 kts | 208° |
| 2026-05-09 21:24 | -5.86152 | -142.94937 | 35925 ft | 481 kts | 208° |
| 2026-05-09 21:24 | -5.92138 | -142.97968 | 35923 ft | 482 kts | 208° |
| 2026-05-09 21:25 | -5.98120 | -143.00998 | 35923 ft | 481 kts | 208° |
| 2026-05-09 21:25 | -6.04085 | -143.04020 | 35925 ft | 480 kts | 208° |
| 2026-05-09 21:26 | -6.10044 | -143.07040 | 35924 ft | 479 kts | 208° |
| 2026-05-09 21:26 | -6.15958 | -143.10037 | 35924 ft | 479 kts | 208° |
| 2026-05-09 21:27 | -6.21904 | -143.13053 | 35923 ft | 479 kts | 208° |
| 2026-05-09 21:27 | -6.27856 | -143.16071 | 35924 ft | 479 kts | 208° |
| 2026-05-09 21:28 | -6.33807 | -143.19090 | 35927 ft | 479 kts | 208° |
| 2026-05-09 21:28 | -6.39719 | -143.22089 | 35926 ft | 479 kts | 208° |
| 2026-05-09 21:29 | -6.45670 | -143.25110 | 35920 ft | 479 kts | 208° |
| 2026-05-09 21:29 | -6.51604 | -143.28122 | 35920 ft | 477 kts | 208° |
| 2026-05-09 21:30 | -6.57537 | -143.31136 | 35923 ft | 477 kts | 208° |
| 2026-05-09 21:30 | -6.63423 | -143.34125 | 35922 ft | 477 kts | 208° |
| 2026-05-09 21:31 | -6.69344 | -143.37134 | 35921 ft | 477 kts | 208° |
| 2026-05-09 21:31 | -6.75271 | -143.40146 | 35927 ft | 477 kts | 208° |
| 2026-05-09 21:32 | -6.81198 | -143.43159 | 35929 ft | 477 kts | 208° |
| 2026-05-09 21:32 | -6.87077 | -143.46148 | 35929 ft | 477 kts | 208° |
| 2026-05-09 21:33 | -6.92992 | -143.49157 | 35926 ft | 476 kts | 208° |
| 2026-05-09 21:33 | -6.98910 | -143.52168 | 35926 ft | 477 kts | 208° |
| 2026-05-09 21:34 | -7.04831 | -143.55182 | 35925 ft | 477 kts | 208° |
| 2026-05-09 21:34 | -7.10708 | -143.58173 | 35923 ft | 476 kts | 208° |
| 2026-05-09 21:35 | -7.16617 | -143.61183 | 35925 ft | 476 kts | 208° |
| 2026-05-09 21:35 | -7.22526 | -143.64192 | 35924 ft | 476 kts | 208° |
| 2026-05-09 21:36 | -7.28431 | -143.67201 | 35922 ft | 475 kts | 208° |
| 2026-05-09 21:36 | -7.34291 | -143.70188 | 35921 ft | 475 kts | 208° |
| 2026-05-09 21:37 | -7.40198 | -143.73200 | 35926 ft | 477 kts | 208° |
| 2026-05-09 21:37 | -7.46125 | -143.76222 | 35927 ft | 477 kts | 208° |
| 2026-05-09 21:38 | -7.52041 | -143.79240 | 35928 ft | 476 kts | 208° |
| 2026-05-09 21:38 | -7.57895 | -143.82227 | 35926 ft | 474 kts | 208° |
| 2026-05-09 21:39 | -7.63789 | -143.85236 | 35926 ft | 476 kts | 208° |
| 2026-05-09 21:39 | -7.69706 | -143.88257 | 35930 ft | 477 kts | 208° |
| 2026-05-09 21:40 | -7.75600 | -143.91268 | 35929 ft | 479 kts | 208° |
| 2026-05-09 21:40 | -7.81532 | -143.94299 | 35931 ft | 477 kts | 208° |
| 2026-05-09 21:41 | -7.87438 | -143.97317 | 35924 ft | 475 kts | 208° |
| 2026-05-09 21:41 | -7.93329 | -144.00329 | 35920 ft | 474 kts | 208° |
| 2026-05-09 21:42 | -7.99208 | -144.03336 | 35924 ft | 473 kts | 208° |
| 2026-05-09 21:42 | -8.05055 | -144.06327 | 35926 ft | 475 kts | 208° |
| 2026-05-09 21:43 | -8.10956 | -144.09347 | 35931 ft | 476 kts | 208° |
| 2026-05-09 21:43 | -8.16874 | -144.12377 | 35930 ft | 477 kts | 208° |
| 2026-05-09 21:44 | -8.22750 | -144.15386 | 35931 ft | 476 kts | 208° |
| 2026-05-09 21:44 | -8.28642 | -144.18404 | 35927 ft | 474 kts | 208° |
| 2026-05-09 21:45 | -8.34519 | -144.21416 | 35928 ft | 474 kts | 208° |
| 2026-05-09 21:45 | -8.40411 | -144.24437 | 35930 ft | 476 kts | 208° |
| 2026-05-09 21:46 | -8.46315 | -144.27464 | 35930 ft | 475 kts | 208° |
| 2026-05-09 21:46 | -8.52160 | -144.30462 | 35929 ft | 474 kts | 208° |
| 2026-05-09 21:47 | -8.58035 | -144.33477 | 35928 ft | 473 kts | 208° |
| 2026-05-09 21:47 | -8.63906 | -144.36491 | 35928 ft | 473 kts | 208° |
| 2026-05-09 21:48 | -8.69737 | -144.39485 | 35928 ft | 473 kts | 208° |
| 2026-05-09 21:48 | -8.75608 | -144.42501 | 35931 ft | 473 kts | 208° |
| 2026-05-09 21:49 | -8.81477 | -144.45517 | 35931 ft | 473 kts | 208° |
| 2026-05-09 21:49 | -8.87348 | -144.48535 | 35931 ft | 473 kts | 208° |
| 2026-05-09 21:50 | -8.93216 | -144.51552 | 35929 ft | 473 kts | 208° |
| 2026-05-09 21:51 | -9.01957 | -144.56050 | 35932 ft | 472 kts | 208° |
| 2026-05-09 21:51 | -9.07804 | -144.59059 | 35931 ft | 472 kts | 208° |
| 2026-05-09 21:52 | -9.13654 | -144.62071 | 35933 ft | 471 kts | 208° |
| 2026-05-09 21:52 | -9.19499 | -144.65082 | 35933 ft | 472 kts | 208° |
| 2026-05-09 21:53 | -9.25307 | -144.68075 | 35931 ft | 472 kts | 208° |
| 2026-05-09 21:53 | -9.31164 | -144.71094 | 35935 ft | 474 kts | 208° |
| 2026-05-09 21:54 | -9.40004 | -144.75653 | 35936 ft | 476 kts | 208° |
| 2026-05-09 21:54 | -9.45850 | -144.78670 | 35936 ft | 473 kts | 208° |
| 2026-05-09 21:55 | -9.51707 | -144.81693 | 35932 ft | 472 kts | 208° |
| 2026-05-09 21:55 | -9.57557 | -144.84714 | 35932 ft | 473 kts | 208° |
| 2026-05-09 21:56 | -9.63429 | -144.87747 | 35938 ft | 474 kts | 208° |
| 2026-05-09 21:56 | -9.69312 | -144.90787 | 35939 ft | 475 kts | 208° |
| 2026-05-09 21:57 | -9.75168 | -144.93815 | 35934 ft | 475 kts | 208° |
| 2026-05-09 21:57 | -9.81052 | -144.96858 | 35934 ft | 474 kts | 208° |
| 2026-05-09 21:58 | -9.86917 | -144.99892 | 35935 ft | 473 kts | 208° |
| 2026-05-09 21:58 | -9.92770 | -145.02921 | 35936 ft | 472 kts | 208° |
| 2026-05-09 21:59 | -9.98573 | -145.05927 | 35931 ft | 472 kts | 208° |
| 2026-05-09 21:59 | -10.04429 | -145.08954 | 35933 ft | 473 kts | 208° |
| 2026-05-09 22:00 | -10.10307 | -145.11985 | 35941 ft | 474 kts | 208° |
| 2026-05-09 22:00 | -10.16154 | -145.15008 | 35940 ft | 475 kts | 208° |
| 2026-05-09 22:01 | -10.22041 | -145.18048 | 35942 ft | 474 kts | 208° |
| 2026-05-09 22:01 | -10.27901 | -145.21078 | 35943 ft | 472 kts | 208° |
| 2026-05-09 22:02 | -10.33750 | -145.24103 | 35939 ft | 471 kts | 208° |
| 2026-05-09 22:02 | -10.39550 | -145.27105 | 35936 ft | 471 kts | 208° |
| 2026-05-09 22:03 | -10.45399 | -145.30132 | 35938 ft | 473 kts | 208° |
| 2026-05-09 22:03 | -10.51268 | -145.33171 | 35942 ft | 474 kts | 208° |
| 2026-05-09 22:04 | -10.57145 | -145.36216 | 35945 ft | 475 kts | 208° |
| 2026-05-09 22:04 | -10.63015 | -145.39258 | 35941 ft | 472 kts | 208° |
| 2026-05-09 22:05 | -10.68814 | -145.42265 | 35937 ft | 471 kts | 208° |
| 2026-05-09 22:05 | -10.74653 | -145.45294 | 35936 ft | 472 kts | 208° |
| 2026-05-09 22:06 | -10.80502 | -145.48329 | 35938 ft | 472 kts | 208° |
| 2026-05-09 22:06 | -10.86363 | -145.51372 | 35940 ft | 473 kts | 209° |
| 2026-05-09 22:07 | -10.92188 | -145.54398 | 35944 ft | 473 kts | 209° |
| 2026-05-09 22:07 | -10.98031 | -145.57434 | 35941 ft | 470 kts | 209° |
| 2026-05-09 22:08 | -11.03854 | -145.60462 | 35936 ft | 470 kts | 209° |
| 2026-05-09 22:08 | -11.09690 | -145.63497 | 35940 ft | 472 kts | 209° |
| 2026-05-09 22:09 | -11.15541 | -145.66541 | 35946 ft | 473 kts | 209° |
| 2026-05-09 22:09 | -11.21366 | -145.69574 | 35948 ft | 474 kts | 209° |
| 2026-05-09 22:10 | -11.27226 | -145.72626 | 35942 ft | 472 kts | 209° |
| 2026-05-09 22:10 | -11.33049 | -145.75660 | 35937 ft | 469 kts | 209° |
| 2026-05-09 22:11 | -11.38873 | -145.78696 | 35935 ft | 471 kts | 209° |
| 2026-05-09 22:11 | -11.44674 | -145.81722 | 35937 ft | 472 kts | 209° |
| 2026-05-09 22:12 | -11.50529 | -145.84777 | 35942 ft | 473 kts | 209° |
| 2026-05-09 22:12 | -11.56395 | -145.87839 | 35950 ft | 474 kts | 209° |
| 2026-05-09 22:13 | -11.62258 | -145.90901 | 35947 ft | 473 kts | 209° |
| 2026-05-09 22:13 | -11.68100 | -145.93954 | 35944 ft | 471 kts | 209° |
| 2026-05-09 22:14 | -11.73890 | -145.96981 | 35943 ft | 470 kts | 209° |
| 2026-05-09 22:14 | -11.79708 | -146.00024 | 35941 ft | 470 kts | 209° |
| 2026-05-09 22:15 | -11.85539 | -146.03075 | 35937 ft | 472 kts | 209° |
| 2026-05-09 22:15 | -11.91393 | -146.06140 | 35947 ft | 474 kts | 209° |
| 2026-05-09 22:16 | -11.97257 | -146.09211 | 35950 ft | 473 kts | 209° |
| 2026-05-09 22:16 | -12.03067 | -146.12256 | 35949 ft | 472 kts | 209° |
| 2026-05-09 22:17 | -12.08908 | -146.15318 | 35948 ft | 472 kts | 209° |
| 2026-05-09 22:17 | -12.14742 | -146.18379 | 35946 ft | 471 kts | 209° |
| 2026-05-09 22:18 | -12.20570 | -146.21437 | 35943 ft | 470 kts | 209° |
| 2026-05-09 22:18 | -12.26350 | -146.24472 | 35944 ft | 470 kts | 209° |
| 2026-05-09 22:19 | -12.32165 | -146.27527 | 35941 ft | 470 kts | 209° |
| 2026-05-09 22:19 | -12.37972 | -146.30579 | 35942 ft | 469 kts | 209° |
| 2026-05-09 22:20 | -12.43786 | -146.33637 | 35943 ft | 470 kts | 210° |
| 2026-05-09 22:20 | -12.49574 | -146.36682 | 35946 ft | 472 kts | 209° |
| 2026-05-09 22:21 | -12.55416 | -146.39757 | 35942 ft | 473 kts | 209° |
| 2026-05-09 22:21 | -12.61266 | -146.42838 | 35944 ft | 473 kts | 209° |
| 2026-05-09 22:22 | -12.67114 | -146.45920 | 35945 ft | 473 kts | 209° |
| 2026-05-09 22:22 | -12.72921 | -146.48982 | 35945 ft | 473 kts | 209° |
| 2026-05-09 22:23 | -12.78767 | -146.52065 | 35942 ft | 472 kts | 209° |
| 2026-05-09 22:23 | -12.84609 | -146.55148 | 35939 ft | 472 kts | 210° |
| 2026-05-09 22:24 | -12.90447 | -146.58231 | 35947 ft | 472 kts | 210° |
| 2026-05-09 22:24 | -12.96279 | -146.61312 | 35948 ft | 471 kts | 210° |
| 2026-05-09 22:25 | -13.02062 | -146.64369 | 35945 ft | 471 kts | 210° |
| 2026-05-09 22:25 | -13.07877 | -146.67445 | 35943 ft | 470 kts | 210° |
| 2026-05-09 22:26 | -13.13689 | -146.70521 | 35945 ft | 470 kts | 210° |
| 2026-05-09 22:26 | -13.19494 | -146.73594 | 35947 ft | 469 kts | 210° |
| 2026-05-09 22:27 | -13.25288 | -146.76663 | 35947 ft | 469 kts | 210° |
| 2026-05-09 22:27 | -13.31051 | -146.79718 | 35952 ft | 470 kts | 210° |
| 2026-05-09 22:28 | -13.36871 | -146.82805 | 35951 ft | 471 kts | 210° |
| 2026-05-09 22:28 | -13.42703 | -146.85899 | 35948 ft | 472 kts | 210° |
| 2026-05-09 22:29 | -13.48530 | -146.88992 | 35951 ft | 471 kts | 210° |
| 2026-05-09 22:29 | -13.54297 | -146.92056 | 35943 ft | 469 kts | 210° |
| 2026-05-09 22:30 | -13.60089 | -146.95134 | 35944 ft | 468 kts | 210° |
| 2026-05-09 22:30 | -13.65874 | -146.98211 | 35943 ft | 469 kts | 210° |
| 2026-05-09 22:31 | -13.71674 | -147.01296 | 35943 ft | 470 kts | 210° |
| 2026-05-09 22:31 | -13.77446 | -147.04369 | 35948 ft | 471 kts | 210° |
| 2026-05-09 22:32 | -13.83269 | -147.07471 | 35962 ft | 472 kts | 210° |
| 2026-05-09 22:32 | -13.89108 | -147.10583 | 35954 ft | 473 kts | 210° |
| 2026-05-09 22:33 | -13.94941 | -147.13693 | 35948 ft | 471 kts | 209° |
| 2026-05-09 22:33 | -14.00746 | -147.16791 | 35943 ft | 469 kts | 209° |
| 2026-05-09 22:34 | -14.06506 | -147.19866 | 35944 ft | 470 kts | 209° |
| 2026-05-09 22:34 | -14.12322 | -147.22973 | 35948 ft | 471 kts | 209° |
| 2026-05-09 22:35 | -14.18149 | -147.26088 | 35955 ft | 473 kts | 209° |
| 2026-05-09 22:35 | -14.24007 | -147.29220 | 35959 ft | 475 kts | 209° |
| 2026-05-09 22:36 | -14.29823 | -147.32333 | 35956 ft | 474 kts | 209° |
| 2026-05-09 22:36 | -14.35668 | -147.35462 | 35955 ft | 473 kts | 209° |
| 2026-05-09 22:37 | -14.41506 | -147.38590 | 35956 ft | 473 kts | 209° |
| 2026-05-09 22:37 | -14.47342 | -147.41719 | 35955 ft | 472 kts | 208° |
| 2026-05-09 22:38 | -14.53174 | -147.44847 | 35958 ft | 473 kts | 208° |
| 2026-05-09 22:39 | -14.61932 | -147.49548 | 35959 ft | 476 kts | 208° |
| 2026-05-09 22:39 | -14.67796 | -147.52698 | 35958 ft | 474 kts | 208° |
| 2026-05-09 22:40 | -14.76555 | -147.57407 | 35957 ft | 472 kts | 208° |
| 2026-05-09 22:40 | -14.82345 | -147.60523 | 35958 ft | 472 kts | 208° |
| 2026-05-09 22:41 | -14.88196 | -147.63672 | 35959 ft | 476 kts | 208° |
| 2026-05-09 22:41 | -14.94069 | -147.66840 | 35962 ft | 476 kts | 210° |
| 2026-05-09 22:42 | -14.99484 | -147.70733 | 35961 ft | 474 kts | 217° |
| 2026-05-09 22:42 | -15.04760 | -147.74757 | 35965 ft | 475 kts | 217° |
| 2026-05-09 22:43 | -15.10084 | -147.78808 | 35964 ft | 475 kts | 217° |
| 2026-05-09 22:43 | -15.15408 | -147.82867 | 35969 ft | 475 kts | 217° |
| 2026-05-09 22:44 | -15.20740 | -147.86932 | 35963 ft | 477 kts | 217° |
| 2026-05-09 22:44 | -15.26070 | -147.91000 | 35961 ft | 476 kts | 217° |
| 2026-05-09 22:45 | -15.31365 | -147.95043 | 35964 ft | 476 kts | 217° |
| 2026-05-09 22:45 | -15.36685 | -147.99107 | 35963 ft | 475 kts | 217° |
| 2026-05-09 22:46 | -15.42011 | -148.03179 | 35962 ft | 476 kts | 217° |
| 2026-05-09 22:47 | -15.49953 | -148.09256 | 35961 ft | 475 kts | 217° |
| 2026-05-09 22:47 | -15.55273 | -148.13331 | 35960 ft | 475 kts | 217° |
| 2026-05-09 22:48 | -15.60586 | -148.17401 | 35964 ft | 474 kts | 217° |
| 2026-05-09 22:48 | -15.65891 | -148.21469 | 35959 ft | 475 kts | 217° |
| 2026-05-09 22:49 | -15.71178 | -148.25526 | 35959 ft | 476 kts | 217° |
| 2026-05-09 22:49 | -15.76497 | -148.29610 | 35959 ft | 475 kts | 217° |
| 2026-05-09 22:50 | -15.81815 | -148.33696 | 35958 ft | 476 kts | 217° |
| 2026-05-09 22:50 | -15.87147 | -148.37795 | 35972 ft | 476 kts | 218° |
| 2026-05-09 22:51 | -15.92604 | -148.41357 | 35661 ft | 460 kts | 203° |
| 2026-05-09 22:51 | -15.95572 | -148.42594 | 35029 ft | 459 kts | 203° |
| 2026-05-09 22:51 | -15.98539 | -148.43816 | 34461 ft | 458 kts | 203° |
| 2026-05-09 22:51 | -16.01499 | -148.45039 | 33881 ft | 457 kts | 203° |
| 2026-05-09 22:52 | -16.04443 | -148.46264 | 33288 ft | 454 kts | 203° |
| 2026-05-09 22:52 | -16.07367 | -148.47480 | 32724 ft | 451 kts | 203° |
| 2026-05-09 22:52 | -16.10274 | -148.48686 | 32174 ft | 448 kts | 203° |
| 2026-05-09 22:52 | -16.13162 | -148.49883 | 31626 ft | 445 kts | 204° |
| 2026-05-09 22:53 | -16.15988 | -148.51057 | 31096 ft | 442 kts | 204° |
| 2026-05-09 22:53 | -16.18838 | -148.52242 | 30566 ft | 440 kts | 204° |
| 2026-05-09 22:53 | -16.21672 | -148.53421 | 30021 ft | 437 kts | 204° |
| 2026-05-09 22:53 | -16.24485 | -148.54590 | 29458 ft | 433 kts | 204° |
| 2026-05-09 22:54 | -16.27269 | -148.55748 | 28935 ft | 428 kts | 204° |
| 2026-05-09 22:54 | -16.30019 | -148.56892 | 28428 ft | 424 kts | 204° |
| 2026-05-09 22:54 | -16.32743 | -148.58026 | 27916 ft | 419 kts | 204° |
| 2026-05-09 22:54 | -16.35435 | -148.59146 | 27425 ft | 415 kts | 204° |
| 2026-05-09 22:55 | -16.38067 | -148.60242 | 26947 ft | 410 kts | 204° |
| 2026-05-09 22:55 | -16.40703 | -148.61342 | 26464 ft | 406 kts | 203° |
| 2026-05-09 22:55 | -16.43314 | -148.62429 | 25987 ft | 402 kts | 203° |
| 2026-05-09 22:55 | -16.45903 | -148.63508 | 25509 ft | 399 kts | 203° |
| 2026-05-09 22:56 | -16.48466 | -148.64578 | 25047 ft | 395 kts | 202° |
| 2026-05-09 22:56 | -16.51010 | -148.65638 | 24573 ft | 392 kts | 202° |
| 2026-05-09 22:56 | -16.53536 | -148.66691 | 24132 ft | 389 kts | 202° |
| 2026-05-09 22:56 | -16.56042 | -148.67737 | 23671 ft | 387 kts | 202° |
| 2026-05-09 22:57 | -16.58529 | -148.68775 | 23181 ft | 383 kts | 201° |
| 2026-05-09 22:57 | -16.60957 | -148.69789 | 22726 ft | 378 kts | 201° |
| 2026-05-09 22:57 | -16.63386 | -148.70803 | 22280 ft | 373 kts | 201° |
| 2026-05-09 22:57 | -16.65780 | -148.71803 | 21852 ft | 369 kts | 201° |
| 2026-05-09 22:58 | -16.68146 | -148.72792 | 21422 ft | 364 kts | 201° |
| 2026-05-09 22:58 | -16.70490 | -148.73771 | 20996 ft | 363 kts | 201° |
| 2026-05-09 22:58 | -16.72832 | -148.74750 | 20574 ft | 364 kts | 201° |
| 2026-05-09 22:58 | -16.75172 | -148.75730 | 20156 ft | 359 kts | 201° |
| 2026-05-09 22:59 | -16.77484 | -148.76696 | 19746 ft | 356 kts | 201° |
| 2026-05-09 22:59 | -16.79777 | -148.77655 | 19308 ft | 355 kts | 201° |
| 2026-05-09 22:59 | -16.82043 | -148.78603 | 18908 ft | 355 kts | 201° |
| 2026-05-09 22:59 | -16.84336 | -148.79563 | 18497 ft | 354 kts | 201° |
| 2026-05-09 23:00 | -16.86607 | -148.80516 | 18056 ft | 350 kts | 200° |
| 2026-05-09 23:00 | -16.88847 | -148.81454 | 17634 ft | 344 kts | 200° |
| 2026-05-09 23:00 | -16.91062 | -148.82379 | 17233 ft | 343 kts | 200° |
| 2026-05-09 23:00 | -16.93284 | -148.83312 | 16827 ft | 344 kts | 200° |
| 2026-05-09 23:01 | -16.95503 | -148.84244 | 16429 ft | 342 kts | 200° |
| 2026-05-09 23:01 | -16.97690 | -148.85161 | 16035 ft | 336 kts | 199° |
| 2026-05-09 23:01 | -16.99827 | -148.86055 | 15637 ft | 335 kts | 199° |
| 2026-05-09 23:01 | -17.01998 | -148.86964 | 15252 ft | 337 kts | 199° |
| 2026-05-09 23:02 | -17.04171 | -148.87875 | 14856 ft | 336 kts | 200° |
| 2026-05-09 23:02 | -17.06237 | -148.88961 | 14470 ft | 332 kts | 217° |
| 2026-05-09 23:02 | -17.07840 | -148.90713 | 14101 ft | 338 kts | 232° |
| 2026-05-09 23:02 | -17.09218 | -148.92710 | 13669 ft | 338 kts | 233° |
| 2026-05-09 23:03 | -17.10549 | -148.94711 | 13249 ft | 332 kts | 233° |
| 2026-05-09 23:03 | -17.11872 | -148.96686 | 12872 ft | 333 kts | 232° |
| 2026-05-09 23:03 | -17.13213 | -148.98650 | 12491 ft | 330 kts | 232° |
| 2026-05-09 23:03 | -17.14519 | -149.00568 | 12108 ft | 329 kts | 232° |
| 2026-05-09 23:04 | -17.15848 | -149.02527 | 11734 ft | 330 kts | 233° |
| 2026-05-09 23:04 | -17.17158 | -149.04466 | 11339 ft | 324 kts | 232° |
| 2026-05-09 23:04 | -17.18462 | -149.06390 | 10970 ft | 325 kts | 233° |
| 2026-05-09 23:04 | -17.19757 | -149.08302 | 10595 ft | 319 kts | 233° |
| 2026-05-09 23:05 | -17.21012 | -149.10160 | 10441 ft | 305 kts | 232° |
| 2026-05-09 23:05 | -17.22209 | -149.11926 | 10293 ft | 291 kts | 233° |
| 2026-05-09 23:05 | -17.23372 | -149.13646 | 10035 ft | 293 kts | 232° |
| 2026-05-09 23:05 | -17.24562 | -149.15399 | 9729 ft | 295 kts | 232° |
| 2026-05-09 23:06 | -17.25732 | -149.17131 | 9416 ft | 289 kts | 232° |
| 2026-05-09 23:06 | -17.26875 | -149.18821 | 9133 ft | 288 kts | 232° |
| 2026-05-09 23:06 | -17.28041 | -149.20545 | 8844 ft | 291 kts | 232° |
| 2026-05-09 23:06 | -17.29196 | -149.22254 | 8551 ft | 284 kts | 233° |
| 2026-05-09 23:07 | -17.30329 | -149.23931 | 8256 ft | 284 kts | 233° |
| 2026-05-09 23:07 | -17.31472 | -149.25626 | 8008 ft | 288 kts | 232° |
| 2026-05-09 23:07 | -17.32635 | -149.27343 | 7729 ft | 287 kts | 233° |
| 2026-05-09 23:07 | -17.33774 | -149.29033 | 7446 ft | 283 kts | 232° |
| 2026-05-09 23:08 | -17.34924 | -149.30736 | 7154 ft | 289 kts | 232° |
| 2026-05-09 23:08 | -17.36078 | -149.32445 | 6809 ft | 285 kts | 232° |
| 2026-05-09 23:08 | -17.37204 | -149.34118 | 6393 ft | 284 kts | 232° |
| 2026-05-09 23:08 | -17.38339 | -149.35809 | 5943 ft | 283 kts | 232° |
| 2026-05-09 23:09 | -17.39465 | -149.37482 | 5499 ft | 280 kts | 232° |
| 2026-05-09 23:09 | -17.40578 | -149.39139 | 5092 ft | 278 kts | 232° |
| 2026-05-09 23:09 | -17.41693 | -149.40795 | 4668 ft | 277 kts | 232° |
| 2026-05-09 23:09 | -17.42766 | -149.42395 | 4267 ft | 258 kts | 232° |
| 2026-05-09 23:10 | -17.43764 | -149.43870 | 3867 ft | 239 kts | 231° |
| 2026-05-09 23:10 | -17.44698 | -149.45240 | 3513 ft | 224 kts | 231° |
| 2026-05-09 23:10 | -17.45560 | -149.46510 | 3195 ft | 204 kts | 231° |
| 2026-05-09 23:10 | -17.46351 | -149.47676 | 2902 ft | 198 kts | 230° |
| 2026-05-09 23:11 | -17.47139 | -149.48799 | 2651 ft | 181 kts | 229° |
| 2026-05-09 23:11 | -17.47877 | -149.49840 | 2403 ft | 179 kts | 228° |
| 2026-05-09 23:11 | -17.48618 | -149.50888 | 2181 ft | 177 kts | 228° |
| 2026-05-09 23:11 | -17.49333 | -149.51909 | 1946 ft | 172 kts | 229° |
| 2026-05-09 23:12 | -17.50033 | -149.52914 | 1728 ft | 171 kts | 229° |
| 2026-05-09 23:12 | -17.50732 | -149.53932 | 1478 ft | 170 kts | 230° |
| 2026-05-09 23:12 | -17.51394 | -149.54913 | 1227 ft | 160 kts | 229° |
| 2026-05-09 23:12 | -17.52047 | -149.55872 | 982 ft | 169 kts | 227° |
| 2026-05-09 23:13 | -17.52743 | -149.56881 | 725 ft | 170 kts | 227° |
| 2026-05-09 23:13 | -17.53442 | -149.57897 | 475 ft | 170 kts | 228° |
| 2026-05-09 23:13 | -17.54110 | -149.58861 | 257 ft | 165 kts | 232° |
| 2026-05-09 23:13 | -17.54783 | -149.59876 | 44 ft | 171 kts | 237° |
| 2026-05-09 23:14 | -17.55389 | -149.60752 | 27 ft | 118 kts | 233° |
| 2026-05-09 23:14 | -17.55739 | -149.61258 | 31 ft | 59 kts | 234° |
| 2026-05-09 23:14 | -17.55944 | -149.61558 | 26 ft | 42 kts | 239° |
| 2026-05-09 23:14 | -17.56011 | -149.61691 | 27 ft | 6 kts | 187° |
| 2026-05-09 23:15 | -17.56023 | -149.61681 | 27 ft | 3 kts | 118° |
| 2026-05-09 23:15 | -17.56014 | -149.61656 | 27 ft | 8 kts | 56° |
| 2026-05-09 23:15 | -17.55943 | -149.61553 | 26 ft | 26 kts | 54° |
| 2026-05-09 23:15 | -17.55840 | -149.61401 | 29 ft | 24 kts | 56° |
| 2026-05-09 23:16 | -17.55750 | -149.61276 | 30 ft | 19 kts | 56° |
| 2026-05-09 23:16 | -17.55685 | -149.61170 | 31 ft | 14 kts | 68° |
| 2026-05-09 23:16 | -17.55684 | -149.61131 | 30 ft | 1 kts | 124° |
| 2026-05-09 23:16 | -17.55717 | -149.61108 | 31 ft | 13 kts | 148° |
| 2026-05-09 23:17 | -17.55761 | -149.61043 | 27 ft | 9 kts | 90° |
| 2026-05-09 23:17 | -17.55736 | -149.60991 | 27 ft | 8 kts | 50° |
| 2026-05-09 23:17 | -17.55722 | -149.60956 | 27 ft | 2 kts | 99° |
| 2026-05-09 23:17 | -17.55737 | -149.60933 | 27 ft | 7 kts | 133° |
| 2026-05-09 23:18 | -17.55766 | -149.60911 | 27 ft | 5 kts | 144° |
| 2026-05-09 23:18 | -17.55778 | -149.60902 | 27 ft | 0 kts | 144° |